<?xml version="1.0" encoding="UTF-8" standalone="no" ?><gpx xmlns="http://www.topografix.com/GPX/1/1" xmlns:gpxx="http://www.garmin.com/xmlschemas/GpxExtensions/v3" xmlns:wptx1="http://www.garmin.com/xmlschemas/WaypointExtension/v1" xmlns:gpxtpx="http://www.garmin.com/xmlschemas/TrackPointExtension/v1" creator="Dakota 20" version="1.1" xmlns:xsi="http://www.w3.org/2001/XMLSchema-instance" xsi:schemaLocation="http://www.topografix.com/GPX/1/1 http://www.topografix.com/GPX/1/1/gpx.xsd http://www.garmin.com/xmlschemas/GpxExtensions/v3 http://www8.garmin.com/xmlschemas/GpxExtensionsv3.xsd http://www.garmin.com/xmlschemas/WaypointExtension/v1 http://www8.garmin.com/xmlschemas/WaypointExtensionv1.xsd http://www.garmin.com/xmlschemas/TrackPointExtension/v1 http://www.garmin.com/xmlschemas/TrackPointExtensionv1.xsd"><metadata><link href="http://www.garmin.com"><text>Garmin International</text></link><time>2017-04-19T17:49:15Z</time></metadata><trk><name>Current Track: 19 APR 2017 09:58</name><extensions><gpxx:TrackExtension><gpxx:DisplayColor>Cyan</gpxx:DisplayColor></gpxx:TrackExtension></extensions><trkseg><trkpt lat="51.7645706143" lon="-2.1866343543"><ele>128.47</ele><time>2017-04-19T08:58:05Z</time></trkpt><trkpt lat="51.7645702790" lon="-2.1866227034"><ele>128.47</ele><time>2017-04-19T08:58:23Z</time></trkpt><trkpt lat="51.7645601369" lon="-2.1865512058"><ele>128.95</ele><time>2017-04-19T08:58:40Z</time></trkpt><trkpt lat="51.7647253443" lon="-2.1863901056"><ele>127.99</ele><time>2017-04-19T08:58:58Z</time></trkpt><trkpt lat="51.7647928186" lon="-2.1862433385"><ele>128.47</ele><time>2017-04-19T08:59:11Z</time></trkpt><trkpt lat="51.7648094986" lon="-2.1862173546"><ele>127.99</ele><time>2017-04-19T08:59:13Z</time></trkpt><trkpt lat="51.7648338061" lon="-2.1860906202"><ele>128.47</ele><time>2017-04-19T08:59:28Z</time></trkpt><trkpt lat="51.7648862768" lon="-2.1860190388"><ele>127.99</ele><time>2017-04-19T08:59:48Z</time></trkpt><trkpt lat="51.7649027891" lon="-2.1859959885"><ele>127.99</ele><time>2017-04-19T08:59:50Z</time></trkpt><trkpt lat="51.7650398333" lon="-2.1859241556"><ele>128.47</ele><time>2017-04-19T09:00:03Z</time></trkpt><trkpt lat="51.7651831638" lon="-2.1858342178"><ele>127.99</ele><time>2017-04-19T09:00:17Z</time></trkpt><trkpt lat="51.7652020231" lon="-2.1858042944"><ele>128.47</ele><time>2017-04-19T09:00:20Z</time></trkpt><trkpt lat="51.7652441841" lon="-2.1857357305"><ele>128.95</ele><time>2017-04-19T09:00:26Z</time></trkpt><trkpt lat="51.7653557472" lon="-2.1856419370"><ele>127.99</ele><time>2017-04-19T09:00:39Z</time></trkpt><trkpt lat="51.7654785421" lon="-2.1855542623"><ele>128.47</ele><time>2017-04-19T09:00:54Z</time></trkpt><trkpt lat="51.7655925360" lon="-2.1854778193"><ele>128.47</ele><time>2017-04-19T09:01:08Z</time></trkpt><trkpt lat="51.7657157499" lon="-2.1853617299"><ele>128.95</ele><time>2017-04-19T09:01:26Z</time></trkpt><trkpt lat="51.7657565698" lon="-2.1853322256"><ele>128.95</ele><time>2017-04-19T09:01:39Z</time></trkpt><trkpt lat="51.7658245470" lon="-2.1853184793"><ele>129.43</ele><time>2017-04-19T09:01:55Z</time></trkpt><trkpt lat="51.7659143172" lon="-2.1852250211"><ele>129.92</ele><time>2017-04-19T09:02:11Z</time></trkpt><trkpt lat="51.7659414746" lon="-2.1852277033"><ele>129.43</ele><time>2017-04-19T09:02:29Z</time></trkpt><trkpt lat="51.7659249622" lon="-2.1852340735"><ele>128.95</ele><time>2017-04-19T09:02:47Z</time></trkpt><trkpt lat="51.7659525387" lon="-2.1852211654"><ele>129.43</ele><time>2017-04-19T09:03:02Z</time></trkpt><trkpt lat="51.7660526186" lon="-2.1851619054"><ele>129.92</ele><time>2017-04-19T09:03:17Z</time></trkpt><trkpt lat="51.7660863139" lon="-2.1851432137"><ele>129.43</ele><time>2017-04-19T09:03:38Z</time></trkpt><trkpt lat="51.7661041673" lon="-2.1851396095"><ele>129.92</ele><time>2017-04-19T09:03:51Z</time></trkpt><trkpt lat="51.7662450671" lon="-2.1851407830"><ele>130.40</ele><time>2017-04-19T09:04:05Z</time></trkpt><trkpt lat="51.7663629167" lon="-2.1851085126"><ele>130.88</ele><time>2017-04-19T09:04:18Z</time></trkpt><trkpt lat="51.7665013019" lon="-2.1850780025"><ele>131.84</ele><time>2017-04-19T09:04:32Z</time></trkpt><trkpt lat="51.7666503321" lon="-2.1850992925"><ele>133.76</ele><time>2017-04-19T09:04:47Z</time></trkpt><trkpt lat="51.7668144498" lon="-2.1850915812"><ele>135.20</ele><time>2017-04-19T09:05:04Z</time></trkpt><trkpt lat="51.7669162061" lon="-2.1851414535"><ele>135.68</ele><time>2017-04-19T09:05:21Z</time></trkpt><trkpt lat="51.7670510709" lon="-2.1851308085"><ele>137.61</ele><time>2017-04-19T09:05:38Z</time></trkpt><trkpt lat="51.7671827506" lon="-2.1851649228"><ele>138.57</ele><time>2017-04-19T09:05:55Z</time></trkpt><trkpt lat="51.7672995944" lon="-2.1852429584"><ele>138.57</ele><time>2017-04-19T09:06:10Z</time></trkpt><trkpt lat="51.7674214672" lon="-2.1852118615"><ele>138.57</ele><time>2017-04-19T09:06:26Z</time></trkpt><trkpt lat="51.7675471120" lon="-2.1851795074"><ele>139.53</ele><time>2017-04-19T09:06:36Z</time></trkpt><trkpt lat="51.7676504608" lon="-2.1851375978"><ele>140.01</ele><time>2017-04-19T09:06:49Z</time></trkpt><trkpt lat="51.7677957192" lon="-2.1851008851"><ele>140.97</ele><time>2017-04-19T09:07:05Z</time></trkpt><trkpt lat="51.7678377964" lon="-2.1851041541"><ele>141.45</ele><time>2017-04-19T09:07:11Z</time></trkpt><trkpt lat="51.7679808754" lon="-2.1850982029"><ele>142.41</ele><time>2017-04-19T09:07:27Z</time></trkpt><trkpt lat="51.7681136448" lon="-2.1850905754"><ele>143.37</ele><time>2017-04-19T09:07:44Z</time></trkpt><trkpt lat="51.7681460828" lon="-2.1850962751"><ele>143.85</ele><time>2017-04-19T09:08:01Z</time></trkpt><trkpt lat="51.7682081927" lon="-2.1851765737"><ele>143.85</ele><time>2017-04-19T09:08:18Z</time></trkpt><trkpt lat="51.7683551274" lon="-2.1852350794"><ele>145.30</ele><time>2017-04-19T09:08:33Z</time></trkpt><trkpt lat="51.7684450652" lon="-2.1853028890"><ele>146.26</ele><time>2017-04-19T09:08:45Z</time></trkpt><trkpt lat="51.7685235199" lon="-2.1853049006"><ele>147.22</ele><time>2017-04-19T09:09:03Z</time></trkpt><trkpt lat="51.7686981987" lon="-2.1853701118"><ele>148.18</ele><time>2017-04-19T09:09:22Z</time></trkpt><trkpt lat="51.7687594704" lon="-2.1853971854"><ele>149.14</ele><time>2017-04-19T09:09:43Z</time></trkpt><trkpt lat="51.7687531002" lon="-2.1854819264"><ele>149.14</ele><time>2017-04-19T09:09:57Z</time></trkpt><trkpt lat="51.7687740549" lon="-2.1854335628"><ele>149.14</ele><time>2017-04-19T09:10:05Z</time></trkpt><trkpt lat="51.7688982747" lon="-2.1853249334"><ele>150.10</ele><time>2017-04-19T09:10:19Z</time></trkpt><trkpt lat="51.7689710297" lon="-2.1852126997"><ele>151.54</ele><time>2017-04-19T09:10:36Z</time></trkpt><trkpt lat="51.7691104207" lon="-2.1850487497"><ele>152.99</ele><time>2017-04-19T09:10:56Z</time></trkpt><trkpt lat="51.7691536713" lon="-2.1849624999"><ele>152.99</ele><time>2017-04-19T09:11:03Z</time></trkpt><trkpt lat="51.7691776436" lon="-2.1850511804"><ele>153.47</ele><time>2017-04-19T09:11:19Z</time></trkpt><trkpt lat="51.7691781465" lon="-2.1850373503"><ele>153.95</ele><time>2017-04-19T09:11:37Z</time></trkpt><trkpt lat="51.7691794876" lon="-2.1850396134"><ele>153.47</ele><time>2017-04-19T09:12:02Z</time></trkpt><trkpt lat="51.7691853549" lon="-2.1850552876"><ele>153.47</ele><time>2017-04-19T09:12:27Z</time></trkpt><trkpt lat="51.7691830080" lon="-2.1850624122"><ele>152.99</ele><time>2017-04-19T09:12:52Z</time></trkpt><trkpt lat="51.7691871151" lon="-2.1850693692"><ele>152.99</ele><time>2017-04-19T09:12:55Z</time></trkpt><trkpt lat="51.7692195531" lon="-2.1851242706"><ele>155.39</ele><time>2017-04-19T09:13:03Z</time></trkpt><trkpt lat="51.7692527454" lon="-2.1852655057"><ele>156.83</ele><time>2017-04-19T09:13:15Z</time></trkpt><trkpt lat="51.7692539189" lon="-2.1853183955"><ele>156.83</ele><time>2017-04-19T09:13:19Z</time></trkpt><trkpt lat="51.7692609597" lon="-2.1854599658"><ele>158.27</ele><time>2017-04-19T09:13:31Z</time></trkpt><trkpt lat="51.7692624684" lon="-2.1855639853"><ele>159.72</ele><time>2017-04-19T09:13:45Z</time></trkpt><trkpt lat="51.7693077307" lon="-2.1857656538"><ele>162.12</ele><time>2017-04-19T09:13:59Z</time></trkpt><trkpt lat="51.7693530768" lon="-2.1859214734"><ele>163.08</ele><time>2017-04-19T09:14:13Z</time></trkpt><trkpt lat="51.7693881132" lon="-2.1860929672"><ele>163.56</ele><time>2017-04-19T09:14:28Z</time></trkpt><trkpt lat="51.7694000993" lon="-2.1862149239"><ele>166.93</ele><time>2017-04-19T09:14:42Z</time></trkpt><trkpt lat="51.7694266699" lon="-2.1863533929"><ele>167.89</ele><time>2017-04-19T09:14:57Z</time></trkpt><trkpt lat="51.7694573477" lon="-2.1864823066"><ele>168.85</ele><time>2017-04-19T09:15:10Z</time></trkpt><trkpt lat="51.7694602814" lon="-2.1865733340"><ele>170.77</ele><time>2017-04-19T09:15:24Z</time></trkpt><trkpt lat="51.7694757041" lon="-2.1865664609"><ele>170.77</ele><time>2017-04-19T09:15:49Z</time></trkpt><trkpt lat="51.7694939766" lon="-2.1865758486"><ele>170.77</ele><time>2017-04-19T09:16:03Z</time></trkpt><trkpt lat="51.7695166916" lon="-2.1865917742"><ele>170.29</ele><time>2017-04-19T09:16:24Z</time></trkpt><trkpt lat="51.7695039511" lon="-2.1866560634"><ele>172.21</ele><time>2017-04-19T09:16:44Z</time></trkpt><trkpt lat="51.7694813199" lon="-2.1868110448"><ele>173.17</ele><time>2017-04-19T09:16:57Z</time></trkpt><trkpt lat="51.7695078906" lon="-2.1869135555"><ele>175.58</ele><time>2017-04-19T09:17:12Z</time></trkpt><trkpt lat="51.7695426755" lon="-2.1869503520"><ele>177.02</ele><time>2017-04-19T09:17:20Z</time></trkpt><trkpt lat="51.7696686555" lon="-2.1868920978"><ele>177.98</ele><time>2017-04-19T09:17:38Z</time></trkpt><trkpt lat="51.7697621137" lon="-2.1868357714"><ele>178.46</ele><time>2017-04-19T09:17:49Z</time></trkpt><trkpt lat="51.7698566616" lon="-2.1868413873"><ele>178.94</ele><time>2017-04-19T09:18:06Z</time></trkpt><trkpt lat="51.7699205317" lon="-2.1867527068"><ele>179.42</ele><time>2017-04-19T09:18:19Z</time></trkpt><trkpt lat="51.7700858228" lon="-2.1866810415"><ele>179.90</ele><time>2017-04-19T09:18:35Z</time></trkpt><trkpt lat="51.7702074442" lon="-2.1865935344"><ele>180.87</ele><time>2017-04-19T09:18:47Z</time></trkpt><trkpt lat="51.7702980526" lon="-2.1865415666"><ele>182.79</ele><time>2017-04-19T09:19:04Z</time></trkpt><trkpt lat="51.7703573965" lon="-2.1864170954"><ele>183.75</ele><time>2017-04-19T09:19:21Z</time></trkpt><trkpt lat="51.7705097795" lon="-2.1862936299"><ele>183.27</ele><time>2017-04-19T09:19:37Z</time></trkpt><trkpt lat="51.7706350051" lon="-2.1861760318"><ele>183.75</ele><time>2017-04-19T09:19:52Z</time></trkpt><trkpt lat="51.7708729673" lon="-2.1861318592"><ele>184.71</ele><time>2017-04-19T09:20:08Z</time></trkpt><trkpt lat="51.7709880508" lon="-2.1860235650"><ele>185.19</ele><time>2017-04-19T09:20:26Z</time></trkpt><trkpt lat="51.7711416911" lon="-2.1858981717"><ele>187.59</ele><time>2017-04-19T09:20:41Z</time></trkpt><trkpt lat="51.7711592931" lon="-2.1857928112"><ele>187.59</ele><time>2017-04-19T09:20:57Z</time></trkpt><trkpt lat="51.7712442018" lon="-2.1857323777"><ele>191.92</ele><time>2017-04-19T09:21:07Z</time></trkpt><trkpt lat="51.7712434474" lon="-2.1857291926"><ele>188.08</ele><time>2017-04-19T09:21:08Z</time></trkpt><trkpt lat="51.7712414358" lon="-2.1857199725"><ele>190.00</ele><time>2017-04-19T09:21:18Z</time></trkpt><trkpt lat="51.7712417711" lon="-2.1857179608"><ele>187.59</ele><time>2017-04-19T09:21:19Z</time></trkpt><trkpt lat="51.7712745443" lon="-2.1856048889"><ele>188.08</ele><time>2017-04-19T09:21:40Z</time></trkpt><trkpt lat="51.7712578643" lon="-2.1856633946"><ele>188.08</ele><time>2017-04-19T09:22:10Z</time></trkpt><trkpt lat="51.7713031266" lon="-2.1856397577"><ele>188.08</ele><time>2017-04-19T09:22:36Z</time></trkpt><trkpt lat="51.7713307030" lon="-2.1855828445"><ele>187.59</ele><time>2017-04-19T09:22:54Z</time></trkpt><trkpt lat="51.7714572698" lon="-2.1853733808"><ele>188.56</ele><time>2017-04-19T09:23:10Z</time></trkpt><trkpt lat="51.7716121674" lon="-2.1852814313"><ele>188.56</ele><time>2017-04-19T09:23:28Z</time></trkpt><trkpt lat="51.7716843355" lon="-2.1851703711"><ele>189.04</ele><time>2017-04-19T09:23:43Z</time></trkpt><trkpt lat="51.7717435118" lon="-2.1850335784"><ele>188.56</ele><time>2017-04-19T09:23:57Z</time></trkpt><trkpt lat="51.7718185298" lon="-2.1847830433"><ele>187.59</ele><time>2017-04-19T09:24:12Z</time></trkpt><trkpt lat="51.7719680630" lon="-2.1845595818"><ele>187.11</ele><time>2017-04-19T09:24:31Z</time></trkpt><trkpt lat="51.7720749322" lon="-2.1844271477"><ele>187.59</ele><time>2017-04-19T09:24:46Z</time></trkpt><trkpt lat="51.7721791193" lon="-2.1842361242"><ele>189.52</ele><time>2017-04-19T09:25:04Z</time></trkpt><trkpt lat="51.7722707335" lon="-2.1840459388"><ele>190.00</ele><time>2017-04-19T09:25:21Z</time></trkpt><trkpt lat="51.7723827157" lon="-2.1838784683"><ele>190.96</ele><time>2017-04-19T09:25:40Z</time></trkpt><trkpt lat="51.7724765092" lon="-2.1838057134"><ele>192.40</ele><time>2017-04-19T09:25:56Z</time></trkpt><trkpt lat="51.7726559658" lon="-2.1835918073"><ele>192.88</ele><time>2017-04-19T09:26:11Z</time></trkpt><trkpt lat="51.7727593146" lon="-2.1833894681"><ele>191.44</ele><time>2017-04-19T09:26:27Z</time></trkpt><trkpt lat="51.7728008889" lon="-2.1831926610"><ele>190.48</ele><time>2017-04-19T09:26:43Z</time></trkpt><trkpt lat="51.7728537787" lon="-2.1829949319"><ele>190.00</ele><time>2017-04-19T09:26:58Z</time></trkpt><trkpt lat="51.7729229294" lon="-2.1828441415"><ele>189.52</ele><time>2017-04-19T09:27:14Z</time></trkpt><trkpt lat="51.7729964387" lon="-2.1827237774"><ele>189.52</ele><time>2017-04-19T09:27:31Z</time></trkpt><trkpt lat="51.7731173895" lon="-2.1825879905"><ele>189.04</ele><time>2017-04-19T09:27:47Z</time></trkpt><trkpt lat="51.7732632346" lon="-2.1824372839"><ele>189.52</ele><time>2017-04-19T09:28:05Z</time></trkpt><trkpt lat="51.7733211536" lon="-2.1823303308"><ele>189.52</ele><time>2017-04-19T09:28:22Z</time></trkpt><trkpt lat="51.7735059746" lon="-2.1821712423"><ele>188.08</ele><time>2017-04-19T09:28:38Z</time></trkpt><trkpt lat="51.7736451980" lon="-2.1820862498"><ele>188.56</ele><time>2017-04-19T09:28:54Z</time></trkpt><trkpt lat="51.7738064658" lon="-2.1819828171"><ele>187.11</ele><time>2017-04-19T09:29:13Z</time></trkpt><trkpt lat="51.7738389876" lon="-2.1819826495"><ele>188.08</ele><time>2017-04-19T09:29:35Z</time></trkpt><trkpt lat="51.7738368921" lon="-2.1820037719"><ele>187.59</ele><time>2017-04-19T09:30:04Z</time></trkpt><trkpt lat="51.7739091441" lon="-2.1820097230"><ele>190.48</ele><time>2017-04-19T09:30:17Z</time></trkpt><trkpt lat="51.7741254810" lon="-2.1819222998"><ele>191.44</ele><time>2017-04-19T09:30:35Z</time></trkpt><trkpt lat="51.7743393872" lon="-2.1819069609"><ele>194.32</ele><time>2017-04-19T09:30:53Z</time></trkpt><trkpt lat="51.7745056842" lon="-2.1818793006"><ele>194.80</ele><time>2017-04-19T09:31:10Z</time></trkpt><trkpt lat="51.7746207677" lon="-2.1817817353"><ele>197.21</ele><time>2017-04-19T09:31:27Z</time></trkpt><trkpt lat="51.7747173272" lon="-2.1818000078"><ele>197.21</ele><time>2017-04-19T09:31:43Z</time></trkpt><trkpt lat="51.7748340033" lon="-2.1817285102"><ele>198.65</ele><time>2017-04-19T09:31:59Z</time></trkpt><trkpt lat="51.7748071812" lon="-2.1816986706"><ele>198.65</ele><time>2017-04-19T09:32:24Z</time></trkpt><trkpt lat="51.7748140544" lon="-2.1816880256"><ele>199.13</ele><time>2017-04-19T09:32:40Z</time></trkpt><trkpt lat="51.7749504279" lon="-2.1815136820"><ele>198.65</ele><time>2017-04-19T09:32:58Z</time></trkpt><trkpt lat="51.7750116158" lon="-2.1814570203"><ele>198.17</ele><time>2017-04-19T09:33:07Z</time></trkpt><trkpt lat="51.7752714548" lon="-2.1813610476"><ele>198.17</ele><time>2017-04-19T09:33:25Z</time></trkpt><trkpt lat="51.7754399311" lon="-2.1813792363"><ele>197.69</ele><time>2017-04-19T09:33:42Z</time></trkpt><trkpt lat="51.7754498217" lon="-2.1814778075"><ele>199.13</ele><time>2017-04-19T09:34:02Z</time></trkpt><trkpt lat="51.7754824273" lon="-2.1814234089"><ele>197.21</ele><time>2017-04-19T09:34:21Z</time></trkpt><trkpt lat="51.7755424418" lon="-2.1812963393"><ele>199.13</ele><time>2017-04-19T09:34:40Z</time></trkpt><trkpt lat="51.7755458783" lon="-2.1812907234"><ele>195.77</ele><time>2017-04-19T09:34:43Z</time></trkpt><trkpt lat="51.7756459583" lon="-2.1811292879"><ele>194.80</ele><time>2017-04-19T09:35:00Z</time></trkpt><trkpt lat="51.7759031150" lon="-2.1808606479"><ele>193.36</ele><time>2017-04-19T09:35:19Z</time></trkpt><trkpt lat="51.7759518139" lon="-2.1807891503"><ele>193.36</ele><time>2017-04-19T09:35:40Z</time></trkpt><trkpt lat="51.7759354692" lon="-2.1807391942"><ele>192.40</ele><time>2017-04-19T09:35:59Z</time></trkpt><trkpt lat="51.7760830745" lon="-2.1805076022"><ele>191.92</ele><time>2017-04-19T09:36:19Z</time></trkpt><trkpt lat="51.7761341203" lon="-2.1803924348"><ele>191.44</ele><time>2017-04-19T09:36:36Z</time></trkpt><trkpt lat="51.7762270756" lon="-2.1802703105"><ele>190.96</ele><time>2017-04-19T09:36:52Z</time></trkpt><trkpt lat="51.7762977351" lon="-2.1801668778"><ele>190.48</ele><time>2017-04-19T09:37:09Z</time></trkpt><trkpt lat="51.7763281614" lon="-2.1800831426"><ele>190.00</ele><time>2017-04-19T09:37:24Z</time></trkpt><trkpt lat="51.7765330151" lon="-2.1800126508"><ele>190.00</ele><time>2017-04-19T09:37:39Z</time></trkpt><trkpt lat="51.7766521219" lon="-2.1798895206"><ele>190.00</ele><time>2017-04-19T09:37:55Z</time></trkpt><trkpt lat="51.7767849751" lon="-2.1797820646"><ele>188.56</ele><time>2017-04-19T09:38:11Z</time></trkpt><trkpt lat="51.7768693808" lon="-2.1796531510"><ele>189.04</ele><time>2017-04-19T09:38:25Z</time></trkpt><trkpt lat="51.7768879049" lon="-2.1796404105"><ele>189.04</ele><time>2017-04-19T09:38:27Z</time></trkpt><trkpt lat="51.7769169062" lon="-2.1795855928"><ele>188.56</ele><time>2017-04-19T09:38:31Z</time></trkpt><trkpt lat="51.7769991327" lon="-2.1794156916"><ele>189.04</ele><time>2017-04-19T09:38:45Z</time></trkpt><trkpt lat="51.7770479154" lon="-2.1793248318"><ele>189.04</ele><time>2017-04-19T09:38:51Z</time></trkpt><trkpt lat="51.7770764977" lon="-2.1791587025"><ele>189.04</ele><time>2017-04-19T09:39:09Z</time></trkpt><trkpt lat="51.7770200875" lon="-2.1789956745"><ele>188.56</ele><time>2017-04-19T09:39:28Z</time></trkpt><trkpt lat="51.7769936007" lon="-2.1788866259"><ele>187.59</ele><time>2017-04-19T09:39:43Z</time></trkpt><trkpt lat="51.7769221868" lon="-2.1787268668"><ele>184.23</ele><time>2017-04-19T09:39:59Z</time></trkpt><trkpt lat="51.7768729012" lon="-2.1785728913"><ele>180.87</ele><time>2017-04-19T09:40:07Z</time></trkpt><trkpt lat="51.7768613342" lon="-2.1785288863"><ele>180.87</ele><time>2017-04-19T09:40:09Z</time></trkpt><trkpt lat="51.7768092826" lon="-2.1784472466"><ele>179.90</ele><time>2017-04-19T09:40:22Z</time></trkpt><trkpt lat="51.7767939437" lon="-2.1784032416"><ele>178.94</ele><time>2017-04-19T09:40:40Z</time></trkpt><trkpt lat="51.7767605837" lon="-2.1782435663"><ele>177.50</ele><time>2017-04-19T09:40:51Z</time></trkpt><trkpt lat="51.7767424788" lon="-2.1781785227"><ele>176.54</ele><time>2017-04-19T09:40:55Z</time></trkpt><trkpt lat="51.7767262179" lon="-2.1781070251"><ele>175.58</ele><time>2017-04-19T09:41:00Z</time></trkpt><trkpt lat="51.7766475119" lon="-2.1778863296"><ele>172.21</ele><time>2017-04-19T09:41:16Z</time></trkpt><trkpt lat="51.7765408102" lon="-2.1776852477"><ele>170.29</ele><time>2017-04-19T09:41:31Z</time></trkpt><trkpt lat="51.7764612660" lon="-2.1775804739"><ele>167.89</ele><time>2017-04-19T09:41:44Z</time></trkpt><trkpt lat="51.7763615213" lon="-2.1774652228"><ele>165.96</ele><time>2017-04-19T09:41:59Z</time></trkpt><trkpt lat="51.7762974836" lon="-2.1773984190"><ele>164.52</ele><time>2017-04-19T09:42:14Z</time></trkpt><trkpt lat="51.7761675641" lon="-2.1772726066"><ele>161.16</ele><time>2017-04-19T09:42:32Z</time></trkpt><trkpt lat="51.7760283407" lon="-2.1770884562"><ele>158.27</ele><time>2017-04-19T09:42:52Z</time></trkpt><trkpt lat="51.7759778816" lon="-2.1769767255"><ele>154.91</ele><time>2017-04-19T09:43:06Z</time></trkpt><trkpt lat="51.7758840881" lon="-2.1767669264"><ele>153.47</ele><time>2017-04-19T09:43:21Z</time></trkpt><trkpt lat="51.7758244928" lon="-2.1766185667"><ele>152.03</ele><time>2017-04-19T09:43:32Z</time></trkpt><trkpt lat="51.7757483851" lon="-2.1764942631"><ele>150.10</ele><time>2017-04-19T09:43:43Z</time></trkpt><trkpt lat="51.7756603751" lon="-2.1763426345"><ele>147.70</ele><time>2017-04-19T09:44:00Z</time></trkpt><trkpt lat="51.7755876202" lon="-2.1763383597"><ele>146.26</ele><time>2017-04-19T09:44:16Z</time></trkpt><trkpt lat="51.7755520809" lon="-2.1763329115"><ele>145.78</ele><time>2017-04-19T09:44:37Z</time></trkpt><trkpt lat="51.7755540926" lon="-2.1763474122"><ele>145.78</ele><time>2017-04-19T09:44:52Z</time></trkpt><trkpt lat="51.7754956707" lon="-2.1765477397"><ele>143.37</ele><time>2017-04-19T09:45:07Z</time></trkpt><trkpt lat="51.7754675914" lon="-2.1766069997"><ele>142.89</ele><time>2017-04-19T09:45:20Z</time></trkpt><trkpt lat="51.7754537612" lon="-2.1767207421"><ele>141.45</ele><time>2017-04-19T09:45:35Z</time></trkpt><trkpt lat="51.7754429486" lon="-2.1767463069"><ele>141.93</ele><time>2017-04-19T09:46:05Z</time></trkpt><trkpt lat="51.7754566111" lon="-2.1767365839"><ele>141.45</ele><time>2017-04-19T09:46:24Z</time></trkpt><trkpt lat="51.7754306272" lon="-2.1766542736"><ele>144.82</ele><time>2017-04-19T09:46:37Z</time></trkpt><trkpt lat="51.7753924057" lon="-2.1766101010"><ele>141.45</ele><time>2017-04-19T09:46:48Z</time></trkpt><trkpt lat="51.7753915675" lon="-2.1766033955"><ele>141.93</ele><time>2017-04-19T09:47:12Z</time></trkpt><trkpt lat="51.7753879633" lon="-2.1765980311"><ele>141.93</ele><time>2017-04-19T09:47:37Z</time></trkpt><trkpt lat="51.7753907293" lon="-2.1766257752"><ele>142.41</ele><time>2017-04-19T09:47:54Z</time></trkpt><trkpt lat="51.7753818445" lon="-2.1766189858"><ele>137.61</ele><time>2017-04-19T09:48:01Z</time></trkpt><trkpt lat="51.7753815930" lon="-2.1766186506"><ele>142.41</ele><time>2017-04-19T09:48:02Z</time></trkpt><trkpt lat="51.7753685173" lon="-2.1766006295"><ele>141.45</ele><time>2017-04-19T09:48:22Z</time></trkpt><trkpt lat="51.7752691079" lon="-2.1765914094"><ele>138.09</ele><time>2017-04-19T09:48:36Z</time></trkpt><trkpt lat="51.7752361670" lon="-2.1765976120"><ele>137.61</ele><time>2017-04-19T09:48:40Z</time></trkpt><trkpt lat="51.7751950957" lon="-2.1765862126"><ele>134.24</ele><time>2017-04-19T09:48:47Z</time></trkpt><trkpt lat="51.7751489952" lon="-2.1765644196"><ele>134.72</ele><time>2017-04-19T09:49:00Z</time></trkpt><trkpt lat="51.7751209997" lon="-2.1765766572"><ele>134.24</ele><time>2017-04-19T09:49:15Z</time></trkpt><trkpt lat="51.7751287948" lon="-2.1765777469"><ele>134.24</ele><time>2017-04-19T09:49:37Z</time></trkpt><trkpt lat="51.7750906572" lon="-2.1765546128"><ele>133.28</ele><time>2017-04-19T09:49:52Z</time></trkpt><trkpt lat="51.7749652639" lon="-2.1764788404"><ele>129.92</ele><time>2017-04-19T09:50:05Z</time></trkpt><trkpt lat="51.7748485878" lon="-2.1764232684"><ele>127.03</ele><time>2017-04-19T09:50:19Z</time></trkpt><trkpt lat="51.7747537047" lon="-2.1764128748"><ele>124.63</ele><time>2017-04-19T09:50:31Z</time></trkpt><trkpt lat="51.7746220250" lon="-2.1764104441"><ele>121.26</ele><time>2017-04-19T09:50:43Z</time></trkpt><trkpt lat="51.7745468393" lon="-2.1764903236"><ele>119.34</ele><time>2017-04-19T09:50:58Z</time></trkpt><trkpt lat="51.7745205201" lon="-2.1765117813"><ele>123.19</ele><time>2017-04-19T09:51:03Z</time></trkpt><trkpt lat="51.7745201010" lon="-2.1765132062"><ele>120.30</ele><time>2017-04-19T09:51:04Z</time></trkpt><trkpt lat="51.7745039240" lon="-2.1765158884"><ele>119.82</ele><time>2017-04-19T09:51:18Z</time></trkpt><trkpt lat="51.7744952068" lon="-2.1764898207"><ele>119.34</ele><time>2017-04-19T09:51:32Z</time></trkpt><trkpt lat="51.7745041754" lon="-2.1765016392"><ele>119.34</ele><time>2017-04-19T09:52:05Z</time></trkpt><trkpt lat="51.7745099589" lon="-2.1765033994"><ele>119.82</ele><time>2017-04-19T09:52:38Z</time></trkpt><trkpt lat="51.7745075282" lon="-2.1765045729"><ele>119.34</ele><time>2017-04-19T09:53:00Z</time></trkpt><trkpt lat="51.7744745035" lon="-2.1764680278"><ele>120.30</ele><time>2017-04-19T09:53:16Z</time></trkpt><trkpt lat="51.7744497769" lon="-2.1764365956"><ele>119.82</ele><time>2017-04-19T09:53:20Z</time></trkpt><trkpt lat="51.7743955459" lon="-2.1763922554"><ele>122.22</ele><time>2017-04-19T09:53:26Z</time></trkpt><trkpt lat="51.7743460089" lon="-2.1763486695"><ele>123.19</ele><time>2017-04-19T09:53:36Z</time></trkpt><trkpt lat="51.7742841505" lon="-2.1763040777"><ele>125.11</ele><time>2017-04-19T09:53:48Z</time></trkpt><trkpt lat="51.7742170952" lon="-2.1762821171"><ele>127.51</ele><time>2017-04-19T09:54:01Z</time></trkpt><trkpt lat="51.7741501238" lon="-2.1763002221"><ele>128.47</ele><time>2017-04-19T09:54:13Z</time></trkpt><trkpt lat="51.7741285823" lon="-2.1762852184"><ele>128.95</ele><time>2017-04-19T09:54:37Z</time></trkpt><trkpt lat="51.7741321865" lon="-2.1763049997"><ele>128.95</ele><time>2017-04-19T09:55:03Z</time></trkpt><trkpt lat="51.7740943003" lon="-2.1763143875"><ele>130.88</ele><time>2017-04-19T09:55:21Z</time></trkpt><trkpt lat="51.7740523908" lon="-2.1763279662"><ele>130.40</ele><time>2017-04-19T09:55:36Z</time></trkpt><trkpt lat="51.7740221322" lon="-2.1763369348"><ele>132.32</ele><time>2017-04-19T09:55:53Z</time></trkpt><trkpt lat="51.7739627883" lon="-2.1763465740"><ele>134.24</ele><time>2017-04-19T09:56:04Z</time></trkpt><trkpt lat="51.7739228066" lon="-2.1763547044"><ele>135.20</ele><time>2017-04-19T09:56:20Z</time></trkpt><trkpt lat="51.7739013489" lon="-2.1763541177"><ele>134.72</ele><time>2017-04-19T09:56:40Z</time></trkpt><trkpt lat="51.7738549132" lon="-2.1763701271"><ele>135.68</ele><time>2017-04-19T09:56:52Z</time></trkpt><trkpt lat="51.7737937253" lon="-2.1764251962"><ele>138.09</ele><time>2017-04-19T09:57:07Z</time></trkpt><trkpt lat="51.7737266701" lon="-2.1763863880"><ele>139.53</ele><time>2017-04-19T09:57:19Z</time></trkpt><trkpt lat="51.7736579385" lon="-2.1762966178"><ele>139.53</ele><time>2017-04-19T09:57:29Z</time></trkpt><trkpt lat="51.7735910509" lon="-2.1762317419"><ele>139.53</ele><time>2017-04-19T09:57:44Z</time></trkpt><trkpt lat="51.7735581938" lon="-2.1762064286"><ele>140.01</ele><time>2017-04-19T09:57:59Z</time></trkpt><trkpt lat="51.7735553440" lon="-2.1762117930"><ele>140.01</ele><time>2017-04-19T09:58:17Z</time></trkpt><trkpt lat="51.7735373229" lon="-2.1762290597"><ele>140.01</ele><time>2017-04-19T09:58:31Z</time></trkpt><trkpt lat="51.7735269293" lon="-2.1762320772"><ele>140.01</ele><time>2017-04-19T09:58:50Z</time></trkpt><trkpt lat="51.7735332157" lon="-2.1762306523"><ele>140.01</ele><time>2017-04-19T09:59:08Z</time></trkpt><trkpt lat="51.7735436093" lon="-2.1761971246"><ele>140.01</ele><time>2017-04-19T09:59:24Z</time></trkpt><trkpt lat="51.7735392507" lon="-2.1762058418"><ele>139.53</ele><time>2017-04-19T09:59:49Z</time></trkpt><trkpt lat="51.7735459562" lon="-2.1762039140"><ele>140.01</ele><time>2017-04-19T10:00:13Z</time></trkpt><trkpt lat="51.7735488061" lon="-2.1762133855"><ele>139.53</ele><time>2017-04-19T10:00:48Z</time></trkpt><trkpt lat="51.7735444475" lon="-2.1762218513"><ele>140.01</ele><time>2017-04-19T10:01:12Z</time></trkpt><trkpt lat="51.7735373229" lon="-2.1762177441"><ele>139.53</ele><time>2017-04-19T10:01:39Z</time></trkpt><trkpt lat="51.7735403404" lon="-2.1762117092"><ele>139.53</ele><time>2017-04-19T10:02:08Z</time></trkpt><trkpt lat="51.7735379934" lon="-2.1762101166"><ele>139.05</ele><time>2017-04-19T10:02:32Z</time></trkpt><trkpt lat="51.7735399213" lon="-2.1762068477"><ele>140.49</ele><time>2017-04-19T10:03:03Z</time></trkpt><trkpt lat="51.7735368200" lon="-2.1762091108"><ele>140.01</ele><time>2017-04-19T10:03:30Z</time></trkpt><trkpt lat="51.7735410947" lon="-2.1762118768"><ele>139.53</ele><time>2017-04-19T10:03:59Z</time></trkpt><trkpt lat="51.7735404242" lon="-2.1762089431"><ele>139.53</ele><time>2017-04-19T10:04:31Z</time></trkpt><trkpt lat="51.7735431064" lon="-2.1762085240"><ele>139.53</ele><time>2017-04-19T10:05:03Z</time></trkpt><trkpt lat="51.7735481355" lon="-2.1762023214"><ele>139.53</ele><time>2017-04-19T10:05:37Z</time></trkpt><trkpt lat="51.7735455371" lon="-2.1762029920"><ele>139.05</ele><time>2017-04-19T10:06:06Z</time></trkpt><trkpt lat="51.7735467944" lon="-2.1761967055"><ele>139.53</ele><time>2017-04-19T10:06:31Z</time></trkpt><trkpt lat="51.7735395860" lon="-2.1762179956"><ele>140.01</ele><time>2017-04-19T10:06:50Z</time></trkpt><trkpt lat="51.7735303659" lon="-2.1762201749"><ele>139.53</ele><time>2017-04-19T10:07:16Z</time></trkpt><trkpt lat="51.7735296953" lon="-2.1762203425"><ele>145.78</ele><time>2017-04-19T10:07:17Z</time></trkpt><trkpt lat="51.7735290248" lon="-2.1762210131"><ele>139.53</ele><time>2017-04-19T10:07:18Z</time></trkpt><trkpt lat="51.7735216487" lon="-2.1761909220"><ele>140.49</ele><time>2017-04-19T10:07:36Z</time></trkpt><trkpt lat="51.7734999396" lon="-2.1761568077"><ele>140.49</ele><time>2017-04-19T10:07:49Z</time></trkpt><trkpt lat="51.7734894622" lon="-2.1760599129"><ele>141.93</ele><time>2017-04-19T10:08:04Z</time></trkpt><trkpt lat="51.7734911386" lon="-2.1759816259"><ele>140.97</ele><time>2017-04-19T10:08:11Z</time></trkpt><trkpt lat="51.7735118419" lon="-2.1758293267"><ele>142.41</ele><time>2017-04-19T10:08:25Z</time></trkpt><trkpt lat="51.7735137697" lon="-2.1758191008"><ele>151.06</ele><time>2017-04-19T10:08:27Z</time></trkpt><trkpt lat="51.7735144403" lon="-2.1758174244"><ele>141.93</ele><time>2017-04-19T10:08:28Z</time></trkpt><trkpt lat="51.7735217325" lon="-2.1756154206"><ele>142.89</ele><time>2017-04-19T10:08:46Z</time></trkpt><trkpt lat="51.7735307850" lon="-2.1755625308"><ele>143.85</ele><time>2017-04-19T10:09:00Z</time></trkpt><trkpt lat="51.7735408433" lon="-2.1754517220"><ele>144.82</ele><time>2017-04-19T10:09:21Z</time></trkpt><trkpt lat="51.7735524941" lon="-2.1754030231"><ele>145.30</ele><time>2017-04-19T10:09:24Z</time></trkpt><trkpt lat="51.7735580262" lon="-2.1752581000"><ele>146.26</ele><time>2017-04-19T10:09:34Z</time></trkpt><trkpt lat="51.7735933140" lon="-2.1750651486"><ele>148.18</ele><time>2017-04-19T10:09:47Z</time></trkpt><trkpt lat="51.7735996004" lon="-2.1748846024"><ele>150.10</ele><time>2017-04-19T10:10:03Z</time></trkpt><trkpt lat="51.7735970858" lon="-2.1747455467"><ele>150.58</ele><time>2017-04-19T10:10:14Z</time></trkpt><trkpt lat="51.7736016959" lon="-2.1747158747"><ele>150.10</ele><time>2017-04-19T10:10:17Z</time></trkpt><trkpt lat="51.7735881172" lon="-2.1746076643"><ele>152.03</ele><time>2017-04-19T10:10:32Z</time></trkpt><trkpt lat="51.7735615466" lon="-2.1745271143"><ele>152.03</ele><time>2017-04-19T10:10:38Z</time></trkpt><trkpt lat="51.7735574394" lon="-2.1744836122"><ele>152.51</ele><time>2017-04-19T10:10:54Z</time></trkpt><trkpt lat="51.7735638935" lon="-2.1744544432"><ele>153.47</ele><time>2017-04-19T10:11:10Z</time></trkpt><trkpt lat="51.7736073118" lon="-2.1744386852"><ele>153.47</ele><time>2017-04-19T10:11:28Z</time></trkpt><trkpt lat="51.7736375704" lon="-2.1744165570"><ele>153.47</ele><time>2017-04-19T10:11:44Z</time></trkpt><trkpt lat="51.7736365646" lon="-2.1744256094"><ele>153.47</ele><time>2017-04-19T10:12:06Z</time></trkpt><trkpt lat="51.7736351397" lon="-2.1744226757"><ele>152.51</ele><time>2017-04-19T10:12:14Z</time></trkpt><trkpt lat="51.7735215649" lon="-2.1744384337"><ele>153.47</ele><time>2017-04-19T10:12:26Z</time></trkpt><trkpt lat="51.7733520828" lon="-2.1742982045"><ele>153.47</ele><time>2017-04-19T10:12:42Z</time></trkpt><trkpt lat="51.7732067406" lon="-2.1741821151"><ele>153.95</ele><time>2017-04-19T10:12:55Z</time></trkpt><trkpt lat="51.7731280345" lon="-2.1741260402"><ele>153.95</ele><time>2017-04-19T10:13:02Z</time></trkpt><trkpt lat="51.7730731331" lon="-2.1740824543"><ele>154.43</ele><time>2017-04-19T10:13:08Z</time></trkpt><trkpt lat="51.7730109394" lon="-2.1740307380"><ele>153.95</ele><time>2017-04-19T10:13:15Z</time></trkpt><trkpt lat="51.7729833629" lon="-2.1740039159"><ele>154.43</ele><time>2017-04-19T10:13:18Z</time></trkpt><trkpt lat="51.7729430459" lon="-2.1739569772"><ele>154.43</ele><time>2017-04-19T10:13:24Z</time></trkpt><trkpt lat="51.7729033157" lon="-2.1739156544"><ele>154.43</ele><time>2017-04-19T10:13:27Z</time></trkpt><trkpt lat="51.7728154734" lon="-2.1738038398"><ele>154.43</ele><time>2017-04-19T10:13:34Z</time></trkpt><trkpt lat="51.7727231886" lon="-2.1736959647"><ele>154.43</ele><time>2017-04-19T10:13:43Z</time></trkpt><trkpt lat="51.7726463266" lon="-2.1735498682"><ele>153.95</ele><time>2017-04-19T10:13:52Z</time></trkpt><trkpt lat="51.7725152336" lon="-2.1733640414"><ele>154.91</ele><time>2017-04-19T10:14:06Z</time></trkpt><trkpt lat="51.7724289838" lon="-2.1731611155"><ele>154.43</ele><time>2017-04-19T10:14:18Z</time></trkpt><trkpt lat="51.7724101245" lon="-2.1730963234"><ele>153.95</ele><time>2017-04-19T10:14:22Z</time></trkpt><trkpt lat="51.7723501939" lon="-2.1729545016"><ele>154.43</ele><time>2017-04-19T10:14:31Z</time></trkpt><trkpt lat="51.7723248806" lon="-2.1728668269"><ele>154.43</ele><time>2017-04-19T10:14:37Z</time></trkpt><trkpt lat="51.7722882517" lon="-2.1727090795"><ele>154.91</ele><time>2017-04-19T10:14:50Z</time></trkpt><trkpt lat="51.7723170016" lon="-2.1727170423"><ele>154.91</ele><time>2017-04-19T10:15:04Z</time></trkpt><trkpt lat="51.7723221146" lon="-2.1727144439"><ele>155.39</ele><time>2017-04-19T10:15:21Z</time></trkpt><trkpt lat="51.7723069433" lon="-2.1727204788"><ele>154.91</ele><time>2017-04-19T10:15:51Z</time></trkpt><trkpt lat="51.7722253036" lon="-2.1727483906"><ele>153.95</ele><time>2017-04-19T10:16:06Z</time></trkpt><trkpt lat="51.7721435800" lon="-2.1728178766"><ele>152.51</ele><time>2017-04-19T10:16:20Z</time></trkpt><trkpt lat="51.7720690649" lon="-2.1728862729"><ele>151.06</ele><time>2017-04-19T10:16:32Z</time></trkpt><trkpt lat="51.7720149178" lon="-2.1729417611"><ele>151.06</ele><time>2017-04-19T10:16:40Z</time></trkpt><trkpt lat="51.7719022650" lon="-2.1730487142"><ele>149.14</ele><time>2017-04-19T10:16:55Z</time></trkpt><trkpt lat="51.7718460225" lon="-2.1731086448"><ele>148.18</ele><time>2017-04-19T10:17:05Z</time></trkpt><trkpt lat="51.7718035262" lon="-2.1731613670"><ele>147.70</ele><time>2017-04-19T10:17:18Z</time></trkpt><trkpt lat="51.7717582639" lon="-2.1732122451"><ele>147.22</ele><time>2017-04-19T10:17:24Z</time></trkpt><trkpt lat="51.7717434280" lon="-2.1732243150"><ele>146.26</ele><time>2017-04-19T10:17:26Z</time></trkpt><trkpt lat="51.7716746964" lon="-2.1733094752"><ele>146.26</ele><time>2017-04-19T10:17:38Z</time></trkpt><trkpt lat="51.7716386542" lon="-2.1733638737"><ele>144.82</ele><time>2017-04-19T10:17:45Z</time></trkpt><trkpt lat="51.7715924699" lon="-2.1734275762"><ele>144.82</ele><time>2017-04-19T10:17:54Z</time></trkpt><trkpt lat="51.7715410888" lon="-2.1735097189"><ele>144.34</ele><time>2017-04-19T10:18:09Z</time></trkpt><trkpt lat="51.7715056334" lon="-2.1735936217"><ele>142.89</ele><time>2017-04-19T10:18:19Z</time></trkpt><trkpt lat="51.7714468762" lon="-2.1737161651"><ele>142.89</ele><time>2017-04-19T10:18:31Z</time></trkpt><trkpt lat="51.7713830899" lon="-2.1738361102"><ele>140.97</ele><time>2017-04-19T10:18:42Z</time></trkpt><trkpt lat="51.7713193037" lon="-2.1739720646"><ele>140.01</ele><time>2017-04-19T10:18:55Z</time></trkpt><trkpt lat="51.7713043001" lon="-2.1740168240"><ele>140.01</ele><time>2017-04-19T10:19:10Z</time></trkpt><trkpt lat="51.7712762207" lon="-2.1740821190"><ele>140.01</ele><time>2017-04-19T10:19:30Z</time></trkpt><trkpt lat="51.7712710239" lon="-2.1740945242"><ele>140.01</ele><time>2017-04-19T10:19:31Z</time></trkpt><trkpt lat="51.7712265998" lon="-2.1741904970"><ele>139.05</ele><time>2017-04-19T10:19:42Z</time></trkpt><trkpt lat="51.7712035496" lon="-2.1742210910"><ele>138.57</ele><time>2017-04-19T10:19:54Z</time></trkpt><trkpt lat="51.7711771466" lon="-2.1742672753"><ele>138.09</ele><time>2017-04-19T10:20:06Z</time></trkpt><trkpt lat="51.7711358238" lon="-2.1743546985"><ele>137.61</ele><time>2017-04-19T10:20:22Z</time></trkpt><trkpt lat="51.7710906453" lon="-2.1743911598"><ele>137.13</ele><time>2017-04-19T10:20:42Z</time></trkpt><trkpt lat="51.7710485682" lon="-2.1744535211"><ele>137.13</ele><time>2017-04-19T10:20:49Z</time></trkpt><trkpt lat="51.7710313853" lon="-2.1744666807"><ele>136.16</ele><time>2017-04-19T10:20:51Z</time></trkpt><trkpt lat="51.7710047308" lon="-2.1745255217"><ele>135.68</ele><time>2017-04-19T10:21:04Z</time></trkpt><trkpt lat="51.7709468957" lon="-2.1745784953"><ele>134.72</ele><time>2017-04-19T10:21:17Z</time></trkpt><trkpt lat="51.7708738055" lon="-2.1746458858"><ele>134.24</ele><time>2017-04-19T10:21:31Z</time></trkpt><trkpt lat="51.7707929201" lon="-2.1747395117"><ele>133.28</ele><time>2017-04-19T10:21:42Z</time></trkpt><trkpt lat="51.7707868852" lon="-2.1747463010"><ele>133.28</ele><time>2017-04-19T10:21:46Z</time></trkpt><trkpt lat="51.7706916668" lon="-2.1748043038"><ele>131.84</ele><time>2017-04-19T10:21:57Z</time></trkpt><trkpt lat="51.7706469912" lon="-2.1748258453"><ele>130.88</ele><time>2017-04-19T10:22:03Z</time></trkpt><trkpt lat="51.7706280481" lon="-2.1748207323"><ele>130.88</ele><time>2017-04-19T10:22:16Z</time></trkpt><trkpt lat="51.7705919221" lon="-2.1748767234"><ele>129.92</ele><time>2017-04-19T10:22:28Z</time></trkpt><trkpt lat="51.7705081031" lon="-2.1749550942"><ele>128.95</ele><time>2017-04-19T10:22:40Z</time></trkpt><trkpt lat="51.7704367731" lon="-2.1750370692"><ele>127.99</ele><time>2017-04-19T10:22:52Z</time></trkpt><trkpt lat="51.7703674547" lon="-2.1751294378"><ele>126.55</ele><time>2017-04-19T10:23:04Z</time></trkpt><trkpt lat="51.7703487631" lon="-2.1751733590"><ele>125.59</ele><time>2017-04-19T10:23:18Z</time></trkpt><trkpt lat="51.7703128047" lon="-2.1752477065"><ele>124.63</ele><time>2017-04-19T10:23:29Z</time></trkpt><trkpt lat="51.7702859826" lon="-2.1752899513"><ele>124.63</ele><time>2017-04-19T10:23:32Z</time></trkpt><trkpt lat="51.7702574842" lon="-2.1753752790"><ele>123.19</ele><time>2017-04-19T10:23:42Z</time></trkpt><trkpt lat="51.7702072766" lon="-2.1755618602"><ele>121.74</ele><time>2017-04-19T10:23:58Z</time></trkpt><trkpt lat="51.7701820470" lon="-2.1755894367"><ele>121.26</ele><time>2017-04-19T10:24:10Z</time></trkpt><trkpt lat="51.7701586615" lon="-2.1756608505"><ele>120.78</ele><time>2017-04-19T10:24:25Z</time></trkpt><trkpt lat="51.7701579072" lon="-2.1758015826"><ele>118.86</ele><time>2017-04-19T10:24:38Z</time></trkpt><trkpt lat="51.7701658700" lon="-2.1758351941"><ele>117.90</ele><time>2017-04-19T10:24:47Z</time></trkpt><trkpt lat="51.7701617628" lon="-2.1758678835"><ele>117.42</ele><time>2017-04-19T10:24:49Z</time></trkpt><trkpt lat="51.7701510340" lon="-2.1759043448"><ele>114.05</ele><time>2017-04-19T10:24:51Z</time></trkpt><trkpt lat="51.7701486032" lon="-2.1759188455"><ele>117.90</ele><time>2017-04-19T10:24:52Z</time></trkpt><trkpt lat="51.7701575719" lon="-2.1759867389"><ele>115.98</ele><time>2017-04-19T10:25:03Z</time></trkpt><trkpt lat="51.7701543868" lon="-2.1760421433"><ele>112.61</ele><time>2017-04-19T10:25:27Z</time></trkpt><trkpt lat="51.7701543029" lon="-2.1760424785"><ele>117.42</ele><time>2017-04-19T10:25:28Z</time></trkpt><trkpt lat="51.7701515369" lon="-2.1760417242"><ele>115.98</ele><time>2017-04-19T10:25:31Z</time></trkpt><trkpt lat="51.7701372039" lon="-2.1762005612"><ele>114.05</ele><time>2017-04-19T10:25:49Z</time></trkpt><trkpt lat="51.7700907681" lon="-2.1764163114"><ele>111.65</ele><time>2017-04-19T10:26:02Z</time></trkpt><trkpt lat="51.7700648680" lon="-2.1765302215"><ele>110.69</ele><time>2017-04-19T10:26:16Z</time></trkpt><trkpt lat="51.7700315919" lon="-2.1765924990"><ele>109.73</ele><time>2017-04-19T10:26:28Z</time></trkpt><trkpt lat="51.7699537240" lon="-2.1767704468"><ele>108.77</ele><time>2017-04-19T10:26:42Z</time></trkpt><trkpt lat="51.7699311767" lon="-2.1768215764"><ele>107.81</ele><time>2017-04-19T10:26:47Z</time></trkpt><trkpt lat="51.7698690668" lon="-2.1769109275"><ele>106.84</ele><time>2017-04-19T10:27:00Z</time></trkpt><trkpt lat="51.7697948031" lon="-2.1769883763"><ele>104.44</ele><time>2017-04-19T10:27:12Z</time></trkpt><trkpt lat="51.7697538156" lon="-2.1770205628"><ele>103.48</ele><time>2017-04-19T10:27:17Z</time></trkpt><trkpt lat="51.7696718406" lon="-2.1770751290"><ele>102.52</ele><time>2017-04-19T10:27:29Z</time></trkpt><trkpt lat="51.7695836630" lon="-2.1771307848"><ele>101.56</ele><time>2017-04-19T10:27:43Z</time></trkpt><trkpt lat="51.7695249058" lon="-2.1771746222"><ele>99.63</ele><time>2017-04-19T10:27:57Z</time></trkpt><trkpt lat="51.7694959883" lon="-2.1772607043"><ele>99.63</ele><time>2017-04-19T10:28:10Z</time></trkpt><trkpt lat="51.7694212217" lon="-2.1773124207"><ele>98.19</ele><time>2017-04-19T10:28:26Z</time></trkpt><trkpt lat="51.7693952378" lon="-2.1773406677"><ele>98.67</ele><time>2017-04-19T10:28:42Z</time></trkpt><trkpt lat="51.7693759594" lon="-2.1773860138"><ele>98.67</ele><time>2017-04-19T10:29:01Z</time></trkpt><trkpt lat="51.7693640571" lon="-2.1774250735"><ele>98.67</ele><time>2017-04-19T10:29:18Z</time></trkpt><trkpt lat="51.7693299428" lon="-2.1774478722"><ele>98.67</ele><time>2017-04-19T10:29:22Z</time></trkpt><trkpt lat="51.7692385800" lon="-2.1775080543"><ele>98.19</ele><time>2017-04-19T10:29:31Z</time></trkpt><trkpt lat="51.7691022903" lon="-2.1776696574"><ele>98.19</ele><time>2017-04-19T10:29:47Z</time></trkpt><trkpt lat="51.7689825129" lon="-2.1777771972"><ele>98.19</ele><time>2017-04-19T10:30:02Z</time></trkpt><trkpt lat="51.7688879650" lon="-2.1779101342"><ele>98.19</ele><time>2017-04-19T10:30:18Z</time></trkpt><trkpt lat="51.7688615620" lon="-2.1779508702"><ele>98.19</ele><time>2017-04-19T10:30:39Z</time></trkpt><trkpt lat="51.7688499950" lon="-2.1779691428"><ele>98.67</ele><time>2017-04-19T10:31:10Z</time></trkpt><trkpt lat="51.7688363325" lon="-2.1779928636"><ele>98.67</ele><time>2017-04-19T10:31:47Z</time></trkpt><trkpt lat="51.7688351590" lon="-2.1780081186"><ele>98.67</ele><time>2017-04-19T10:32:19Z</time></trkpt><trkpt lat="51.7688385956" lon="-2.1780079510"><ele>98.67</ele><time>2017-04-19T10:32:46Z</time></trkpt><trkpt lat="51.7688385956" lon="-2.1779938694"><ele>98.67</ele><time>2017-04-19T10:33:16Z</time></trkpt><trkpt lat="51.7688217480" lon="-2.1779717412"><ele>99.15</ele><time>2017-04-19T10:33:34Z</time></trkpt><trkpt lat="51.7687774915" lon="-2.1778649557"><ele>99.15</ele><time>2017-04-19T10:33:50Z</time></trkpt><trkpt lat="51.7687956803" lon="-2.1778077073"><ele>99.15</ele><time>2017-04-19T10:34:10Z</time></trkpt><trkpt lat="51.7687494121" lon="-2.1777299233"><ele>99.15</ele><time>2017-04-19T10:34:29Z</time></trkpt><trkpt lat="51.7687189858" lon="-2.1777044423"><ele>99.63</ele><time>2017-04-19T10:34:48Z</time></trkpt><trkpt lat="51.7687176447" lon="-2.1777040232"><ele>94.35</ele><time>2017-04-19T10:34:51Z</time></trkpt><trkpt lat="51.7687167227" lon="-2.1777042747"><ele>100.11</ele><time>2017-04-19T10:34:52Z</time></trkpt><trkpt lat="51.7687119450" lon="-2.1776889358"><ele>100.11</ele><time>2017-04-19T10:35:05Z</time></trkpt><trkpt lat="51.7686847039" lon="-2.1775197051"><ele>102.52</ele><time>2017-04-19T10:35:22Z</time></trkpt><trkpt lat="51.7685957719" lon="-2.1772700083"><ele>104.92</ele><time>2017-04-19T10:35:33Z</time></trkpt><trkpt lat="51.7685208376" lon="-2.1771102492"><ele>105.88</ele><time>2017-04-19T10:35:46Z</time></trkpt><trkpt lat="51.7684190813" lon="-2.1769137774"><ele>109.73</ele><time>2017-04-19T10:36:06Z</time></trkpt><trkpt lat="51.7683500983" lon="-2.1768246777"><ele>110.21</ele><time>2017-04-19T10:36:25Z</time></trkpt><trkpt lat="51.7682832945" lon="-2.1767113544"><ele>111.65</ele><time>2017-04-19T10:36:40Z</time></trkpt><trkpt lat="51.7682594899" lon="-2.1766011324"><ele>113.57</ele><time>2017-04-19T10:36:57Z</time></trkpt><trkpt lat="51.7682314944" lon="-2.1764654294"><ele>116.46</ele><time>2017-04-19T10:37:16Z</time></trkpt><trkpt lat="51.7681664508" lon="-2.1762215998"><ele>119.82</ele><time>2017-04-19T10:37:33Z</time></trkpt><trkpt lat="51.7681288999" lon="-2.1761511080"><ele>119.34</ele><time>2017-04-19T10:37:51Z</time></trkpt><trkpt lat="51.7680845596" lon="-2.1761116292"><ele>119.34</ele><time>2017-04-19T10:38:12Z</time></trkpt><trkpt lat="51.7680532951" lon="-2.1760970447"><ele>122.71</ele><time>2017-04-19T10:38:21Z</time></trkpt><trkpt lat="51.7680372018" lon="-2.1760985535"><ele>124.15</ele><time>2017-04-19T10:38:35Z</time></trkpt><trkpt lat="51.7679821327" lon="-2.1760659479"><ele>125.11</ele><time>2017-04-19T10:38:54Z</time></trkpt><trkpt lat="51.7679383792" lon="-2.1760300733"><ele>127.03</ele><time>2017-04-19T10:39:14Z</time></trkpt><trkpt lat="51.7679222021" lon="-2.1760374494"><ele>128.47</ele><time>2017-04-19T10:39:24Z</time></trkpt><trkpt lat="51.7678392213" lon="-2.1760222781"><ele>129.43</ele><time>2017-04-19T10:39:47Z</time></trkpt><trkpt lat="51.7677460145" lon="-2.1760527883"><ele>132.32</ele><time>2017-04-19T10:40:03Z</time></trkpt><trkpt lat="51.7677259818" lon="-2.1760349348"><ele>132.32</ele><time>2017-04-19T10:40:19Z</time></trkpt><trkpt lat="51.7676127423" lon="-2.1761157364"><ele>134.24</ele><time>2017-04-19T10:40:36Z</time></trkpt><trkpt lat="51.7675868422" lon="-2.1761250403"><ele>134.72</ele><time>2017-04-19T10:40:57Z</time></trkpt><trkpt lat="51.7674988322" lon="-2.1762131341"><ele>137.61</ele><time>2017-04-19T10:41:07Z</time></trkpt><trkpt lat="51.7674604431" lon="-2.1762885712"><ele>138.09</ele><time>2017-04-19T10:41:23Z</time></trkpt><trkpt lat="51.7674192879" lon="-2.1763126273"><ele>139.53</ele><time>2017-04-19T10:41:41Z</time></trkpt><trkpt lat="51.7673442699" lon="-2.1763978712"><ele>140.49</ele><time>2017-04-19T10:41:59Z</time></trkpt><trkpt lat="51.7672576010" lon="-2.1764312312"><ele>143.85</ele><time>2017-04-19T10:42:15Z</time></trkpt><trkpt lat="51.7671088222" lon="-2.1764843725"><ele>145.30</ele><time>2017-04-19T10:42:36Z</time></trkpt><trkpt lat="51.7670607101" lon="-2.1765444707"><ele>146.26</ele><time>2017-04-19T10:42:57Z</time></trkpt><trkpt lat="51.7670779768" lon="-2.1765510086"><ele>146.26</ele><time>2017-04-19T10:43:18Z</time></trkpt><trkpt lat="51.7670892924" lon="-2.1765869670"><ele>146.74</ele><time>2017-04-19T10:43:43Z</time></trkpt><trkpt lat="51.7670952436" lon="-2.1766087599"><ele>147.22</ele><time>2017-04-19T10:44:01Z</time></trkpt><trkpt lat="51.7671225686" lon="-2.1767090913"><ele>145.30</ele><time>2017-04-19T10:44:16Z</time></trkpt><trkpt lat="51.7670895439" lon="-2.1769009531"><ele>142.89</ele><time>2017-04-19T10:44:33Z</time></trkpt><trkpt lat="51.7670528311" lon="-2.1770610474"><ele>141.93</ele><time>2017-04-19T10:44:47Z</time></trkpt><trkpt lat="51.7669913080" lon="-2.1772047132"><ele>141.93</ele><time>2017-04-19T10:45:01Z</time></trkpt><trkpt lat="51.7669285275" lon="-2.1773457807"><ele>140.97</ele><time>2017-04-19T10:45:14Z</time></trkpt><trkpt lat="51.7668579519" lon="-2.1775456890"><ele>140.01</ele><time>2017-04-19T10:45:30Z</time></trkpt><trkpt lat="51.7668338958" lon="-2.1776709147"><ele>139.05</ele><time>2017-04-19T10:45:47Z</time></trkpt><trkpt lat="51.7668354046" lon="-2.1777007543"><ele>138.57</ele><time>2017-04-19T10:46:11Z</time></trkpt><trkpt lat="51.7668324709" lon="-2.1777126566"><ele>139.05</ele><time>2017-04-19T10:46:31Z</time></trkpt><trkpt lat="51.7668054812" lon="-2.1777822264"><ele>138.57</ele><time>2017-04-19T10:46:47Z</time></trkpt><trkpt lat="51.7667499930" lon="-2.1780253015"><ele>138.09</ele><time>2017-04-19T10:47:00Z</time></trkpt><trkpt lat="51.7667138670" lon="-2.1781486832"><ele>138.09</ele><time>2017-04-19T10:47:14Z</time></trkpt><trkpt lat="51.7667069938" lon="-2.1781519521"><ele>137.13</ele><time>2017-04-19T10:47:35Z</time></trkpt><trkpt lat="51.7667142022" lon="-2.1781584900"><ele>137.13</ele><time>2017-04-19T10:47:41Z</time></trkpt><trkpt lat="51.7666979413" lon="-2.1783388685"><ele>135.68</ele><time>2017-04-19T10:47:55Z</time></trkpt><trkpt lat="51.7666941695" lon="-2.1783551294"><ele>135.68</ele><time>2017-04-19T10:47:56Z</time></trkpt><trkpt lat="51.7666827701" lon="-2.1783954464"><ele>135.20</ele><time>2017-04-19T10:47:58Z</time></trkpt><trkpt lat="51.7666033097" lon="-2.1787175629"><ele>133.28</ele><time>2017-04-19T10:48:14Z</time></trkpt><trkpt lat="51.7665407807" lon="-2.1789750550"><ele>130.88</ele><time>2017-04-19T10:48:28Z</time></trkpt><trkpt lat="51.7665323149" lon="-2.1790285315"><ele>129.92</ele><time>2017-04-19T10:48:46Z</time></trkpt><trkpt lat="51.7664780840" lon="-2.1791063156"><ele>128.47</ele><time>2017-04-19T10:49:03Z</time></trkpt><trkpt lat="51.7664023116" lon="-2.1791841835"><ele>128.95</ele><time>2017-04-19T10:49:18Z</time></trkpt><trkpt lat="51.7663760763" lon="-2.1792390849"><ele>128.47</ele><time>2017-04-19T10:49:33Z</time></trkpt><trkpt lat="51.7662752420" lon="-2.1791878715"><ele>129.92</ele><time>2017-04-19T10:49:47Z</time></trkpt><trkpt lat="51.7662345059" lon="-2.1792300325"><ele>129.92</ele><time>2017-04-19T10:50:01Z</time></trkpt><trkpt lat="51.7661537044" lon="-2.1792279370"><ele>130.40</ele><time>2017-04-19T10:50:16Z</time></trkpt><trkpt lat="51.7661420535" lon="-2.1793019492"><ele>131.36</ele><time>2017-04-19T10:50:32Z</time></trkpt><trkpt lat="51.7661421373" lon="-2.1793016139"><ele>128.47</ele><time>2017-04-19T10:50:33Z</time></trkpt><trkpt lat="51.7661456577" lon="-2.1793011110"><ele>119.34</ele><time>2017-04-19T10:50:35Z</time></trkpt><trkpt lat="51.7661490943" lon="-2.1792966686"><ele>129.92</ele><time>2017-04-19T10:50:36Z</time></trkpt><trkpt lat="51.7661427241" lon="-2.1792877000"><ele>128.95</ele><time>2017-04-19T10:50:56Z</time></trkpt><trkpt lat="51.7661227752" lon="-2.1792299487"><ele>130.88</ele><time>2017-04-19T10:51:01Z</time></trkpt><trkpt lat="51.7659884971" lon="-2.1790866181"><ele>131.84</ele><time>2017-04-19T10:51:15Z</time></trkpt><trkpt lat="51.7659573164" lon="-2.1790557727"><ele>131.84</ele><time>2017-04-19T10:51:19Z</time></trkpt><trkpt lat="51.7658949550" lon="-2.1789898071"><ele>137.13</ele><time>2017-04-19T10:51:26Z</time></trkpt><trkpt lat="51.7658857349" lon="-2.1789841074"><ele>132.80</ele><time>2017-04-19T10:51:27Z</time></trkpt><trkpt lat="51.7658640258" lon="-2.1789691877"><ele>133.28</ele><time>2017-04-19T10:51:29Z</time></trkpt><trkpt lat="51.7657140736" lon="-2.1788829379"><ele>132.80</ele><time>2017-04-19T10:51:45Z</time></trkpt><trkpt lat="51.7656023428" lon="-2.1788067464"><ele>132.80</ele><time>2017-04-19T10:51:56Z</time></trkpt><trkpt lat="51.7654763628" lon="-2.1787504200"><ele>132.80</ele><time>2017-04-19T10:52:09Z</time></trkpt><trkpt lat="51.7653371394" lon="-2.1786984522"><ele>130.88</ele><time>2017-04-19T10:52:22Z</time></trkpt><trkpt lat="51.7653222196" lon="-2.1786774136"><ele>127.99</ele><time>2017-04-19T10:52:24Z</time></trkpt><trkpt lat="51.7653169390" lon="-2.1786725521"><ele>133.28</ele><time>2017-04-19T10:52:25Z</time></trkpt><trkpt lat="51.7652814835" lon="-2.1786846220"><ele>130.40</ele><time>2017-04-19T10:52:37Z</time></trkpt><trkpt lat="51.7652321979" lon="-2.1786662657"><ele>130.88</ele><time>2017-04-19T10:52:42Z</time></trkpt><trkpt lat="51.7651588563" lon="-2.1786328219"><ele>131.36</ele><time>2017-04-19T10:52:50Z</time></trkpt><trkpt lat="51.7650420126" lon="-2.1785365138"><ele>130.40</ele><time>2017-04-19T10:53:03Z</time></trkpt><trkpt lat="51.7648985982" lon="-2.1784929279"><ele>129.92</ele><time>2017-04-19T10:53:20Z</time></trkpt><trkpt lat="51.7648410145" lon="-2.1784867253"><ele>128.95</ele><time>2017-04-19T10:53:25Z</time></trkpt><trkpt lat="51.7647126038" lon="-2.1784845460"><ele>128.47</ele><time>2017-04-19T10:53:37Z</time></trkpt><trkpt lat="51.7646094225" lon="-2.1785348374"><ele>128.47</ele><time>2017-04-19T10:53:51Z</time></trkpt><trkpt lat="51.7644411977" lon="-2.1786985360"><ele>127.03</ele><time>2017-04-19T10:54:10Z</time></trkpt><trkpt lat="51.7643090151" lon="-2.1788288746"><ele>128.95</ele><time>2017-04-19T10:54:28Z</time></trkpt><trkpt lat="51.7641383596" lon="-2.1789509151"><ele>129.43</ele><time>2017-04-19T10:54:47Z</time></trkpt><trkpt lat="51.7641250324" lon="-2.1789680980"><ele>129.43</ele><time>2017-04-19T10:54:49Z</time></trkpt><trkpt lat="51.7641215958" lon="-2.1790232509"><ele>128.95</ele><time>2017-04-19T10:55:05Z</time></trkpt><trkpt lat="51.7640951928" lon="-2.1790633164"><ele>129.43</ele><time>2017-04-19T10:55:16Z</time></trkpt><trkpt lat="51.7639787681" lon="-2.1791179664"><ele>128.95</ele><time>2017-04-19T10:55:30Z</time></trkpt><trkpt lat="51.7639611661" lon="-2.1791293658"><ele>129.92</ele><time>2017-04-19T10:55:32Z</time></trkpt><trkpt lat="51.7638889980" lon="-2.1791590378"><ele>130.40</ele><time>2017-04-19T10:55:39Z</time></trkpt><trkpt lat="51.7637252994" lon="-2.1792727802"><ele>129.92</ele><time>2017-04-19T10:55:57Z</time></trkpt><trkpt lat="51.7636214476" lon="-2.1793665737"><ele>130.40</ele><time>2017-04-19T10:56:14Z</time></trkpt><trkpt lat="51.7635830585" lon="-2.1793727763"><ele>128.95</ele><time>2017-04-19T10:56:20Z</time></trkpt><trkpt lat="51.7634714954" lon="-2.1794655640"><ele>130.40</ele><time>2017-04-19T10:56:35Z</time></trkpt><trkpt lat="51.7634347826" lon="-2.1795677394"><ele>130.40</ele><time>2017-04-19T10:56:47Z</time></trkpt><trkpt lat="51.7633523885" lon="-2.1795675717"><ele>130.40</ele><time>2017-04-19T10:56:58Z</time></trkpt><trkpt lat="51.7632617801" lon="-2.1796224732"><ele>131.84</ele><time>2017-04-19T10:57:07Z</time></trkpt><trkpt lat="51.7631987482" lon="-2.1796642151"><ele>131.36</ele><time>2017-04-19T10:57:14Z</time></trkpt><trkpt lat="51.7631513067" lon="-2.1797013469"><ele>131.84</ele><time>2017-04-19T10:57:19Z</time></trkpt><trkpt lat="51.7630999256" lon="-2.1797296777"><ele>131.84</ele><time>2017-04-19T10:57:25Z</time></trkpt><trkpt lat="51.7630508915" lon="-2.1797606908"><ele>132.32</ele><time>2017-04-19T10:57:29Z</time></trkpt><trkpt lat="51.7629233189" lon="-2.1797886025"><ele>132.32</ele><time>2017-04-19T10:57:42Z</time></trkpt><trkpt lat="51.7628434394" lon="-2.1797677316"><ele>132.32</ele><time>2017-04-19T10:57:57Z</time></trkpt><trkpt lat="51.7627976742" lon="-2.1796923783"><ele>132.32</ele><time>2017-04-19T10:58:13Z</time></trkpt><trkpt lat="51.7627900466" lon="-2.1796668135"><ele>132.32</ele><time>2017-04-19T10:58:17Z</time></trkpt><trkpt lat="51.7627617158" lon="-2.1795660630"><ele>133.28</ele><time>2017-04-19T10:58:24Z</time></trkpt><trkpt lat="51.7627350613" lon="-2.1793047991"><ele>133.28</ele><time>2017-04-19T10:58:39Z</time></trkpt><trkpt lat="51.7627016176" lon="-2.1792190522"><ele>133.76</ele><time>2017-04-19T10:58:54Z</time></trkpt><trkpt lat="51.7625930719" lon="-2.1790546831"><ele>132.32</ele><time>2017-04-19T10:59:11Z</time></trkpt><trkpt lat="51.7624924891" lon="-2.1788593009"><ele>129.92</ele><time>2017-04-19T10:59:29Z</time></trkpt><trkpt lat="51.7624107655" lon="-2.1787420381"><ele>127.51</ele><time>2017-04-19T10:59:49Z</time></trkpt><trkpt lat="51.7622594722" lon="-2.1786837839"><ele>124.15</ele><time>2017-04-19T11:00:06Z</time></trkpt><trkpt lat="51.7621166445" lon="-2.1786499210"><ele>122.22</ele><time>2017-04-19T11:00:26Z</time></trkpt><trkpt lat="51.7620399501" lon="-2.1786661819"><ele>121.26</ele><time>2017-04-19T11:00:41Z</time></trkpt><trkpt lat="51.7620272934" lon="-2.1786929201"><ele>121.26</ele><time>2017-04-19T11:01:07Z</time></trkpt><trkpt lat="51.7620236054" lon="-2.1787131205"><ele>120.78</ele><time>2017-04-19T11:01:30Z</time></trkpt><trkpt lat="51.7620376870" lon="-2.1787358355"><ele>121.26</ele><time>2017-04-19T11:01:56Z</time></trkpt><trkpt lat="51.7620401178" lon="-2.1789136156"><ele>120.30</ele><time>2017-04-19T11:02:05Z</time></trkpt><trkpt lat="51.7620864697" lon="-2.1791120991"><ele>119.82</ele><time>2017-04-19T11:02:19Z</time></trkpt><trkpt lat="51.7621107772" lon="-2.1792806592"><ele>118.86</ele><time>2017-04-19T11:02:33Z</time></trkpt><trkpt lat="51.7621233501" lon="-2.1794824116"><ele>118.38</ele><time>2017-04-19T11:02:48Z</time></trkpt><trkpt lat="51.7621354200" lon="-2.1796482056"><ele>117.42</ele><time>2017-04-19T11:03:02Z</time></trkpt><trkpt lat="51.7621396948" lon="-2.1797282528"><ele>116.94</ele><time>2017-04-19T11:03:08Z</time></trkpt><trkpt lat="51.7621339113" lon="-2.1799352858"><ele>116.46</ele><time>2017-04-19T11:03:25Z</time></trkpt><trkpt lat="51.7621420417" lon="-2.1800931171"><ele>115.50</ele><time>2017-04-19T11:03:39Z</time></trkpt><trkpt lat="51.7621308938" lon="-2.1803236194"><ele>114.05</ele><time>2017-04-19T11:03:57Z</time></trkpt><trkpt lat="51.7621305585" lon="-2.1805058420"><ele>113.09</ele><time>2017-04-19T11:04:11Z</time></trkpt><trkpt lat="51.7621356715" lon="-2.1805404592"><ele>113.57</ele><time>2017-04-19T11:04:13Z</time></trkpt><trkpt lat="51.7621282116" lon="-2.1808061656"><ele>111.65</ele><time>2017-04-19T11:04:32Z</time></trkpt><trkpt lat="51.7621035688" lon="-2.1810161322"><ele>110.21</ele><time>2017-04-19T11:04:47Z</time></trkpt><trkpt lat="51.7620615754" lon="-2.1811858658"><ele>108.29</ele><time>2017-04-19T11:05:03Z</time></trkpt><trkpt lat="51.7620607372" lon="-2.1812018752"><ele>107.81</ele><time>2017-04-19T11:05:23Z</time></trkpt><trkpt lat="51.7620666884" lon="-2.1812183037"><ele>106.84</ele><time>2017-04-19T11:05:46Z</time></trkpt><trkpt lat="51.7620585579" lon="-2.1812166274"><ele>107.81</ele><time>2017-04-19T11:06:01Z</time></trkpt><trkpt lat="51.7620564625" lon="-2.1812159568"><ele>106.84</ele><time>2017-04-19T11:06:19Z</time></trkpt><trkpt lat="51.7619856354" lon="-2.1812280267"><ele>107.32</ele><time>2017-04-19T11:06:34Z</time></trkpt><trkpt lat="51.7619645968" lon="-2.1812447067"><ele>107.81</ele><time>2017-04-19T11:06:49Z</time></trkpt><trkpt lat="51.7618908361" lon="-2.1812405996"><ele>107.32</ele><time>2017-04-19T11:07:00Z</time></trkpt><trkpt lat="51.7618520278" lon="-2.1813371591"><ele>105.88</ele><time>2017-04-19T11:07:12Z</time></trkpt><trkpt lat="51.7618482560" lon="-2.1813418530"><ele>102.52</ele><time>2017-04-19T11:07:15Z</time></trkpt><trkpt lat="51.7618471663" lon="-2.1813452896"><ele>105.88</ele><time>2017-04-19T11:07:16Z</time></trkpt><trkpt lat="51.7618449032" lon="-2.1813528333"><ele>106.36</ele><time>2017-04-19T11:07:34Z</time></trkpt><trkpt lat="51.7618332524" lon="-2.1813900489"><ele>106.84</ele><time>2017-04-19T11:07:39Z</time></trkpt><trkpt lat="51.7618078552" lon="-2.1814759634"><ele>104.92</ele><time>2017-04-19T11:07:53Z</time></trkpt><trkpt lat="51.7617615033" lon="-2.1816239040"><ele>108.29</ele><time>2017-04-19T11:08:05Z</time></trkpt><trkpt lat="51.7617489304" lon="-2.1816996764"><ele>108.77</ele><time>2017-04-19T11:08:11Z</time></trkpt><trkpt lat="51.7617339268" lon="-2.1818394866"><ele>110.21</ele><time>2017-04-19T11:08:23Z</time></trkpt><trkpt lat="51.7617197614" lon="-2.1818866767"><ele>109.73</ele><time>2017-04-19T11:08:34Z</time></trkpt><trkpt lat="51.7617014050" lon="-2.1819711663"><ele>110.69</ele><time>2017-04-19T11:08:40Z</time></trkpt><trkpt lat="51.7616515327" lon="-2.1820886806"><ele>110.69</ele><time>2017-04-19T11:08:54Z</time></trkpt><trkpt lat="51.7616196815" lon="-2.1821600106"><ele>111.17</ele><time>2017-04-19T11:09:08Z</time></trkpt><trkpt lat="51.7616045102" lon="-2.1822849009"><ele>111.65</ele><time>2017-04-19T11:09:17Z</time></trkpt><trkpt lat="51.7615787778" lon="-2.1823556442"><ele>111.65</ele><time>2017-04-19T11:09:24Z</time></trkpt><trkpt lat="51.7615648638" lon="-2.1824100427"><ele>111.65</ele><time>2017-04-19T11:09:28Z</time></trkpt><trkpt lat="51.7615580745" lon="-2.1824454144"><ele>111.17</ele><time>2017-04-19T11:09:31Z</time></trkpt><trkpt lat="51.7615433224" lon="-2.1824987233"><ele>112.61</ele><time>2017-04-19T11:09:35Z</time></trkpt><trkpt lat="51.7615213618" lon="-2.1825748309"><ele>111.17</ele><time>2017-04-19T11:09:41Z</time></trkpt><trkpt lat="51.7614998203" lon="-2.1826262958"><ele>112.13</ele><time>2017-04-19T11:09:45Z</time></trkpt><trkpt lat="51.7614418175" lon="-2.1828114521"><ele>111.65</ele><time>2017-04-19T11:09:58Z</time></trkpt><trkpt lat="51.7614227906" lon="-2.1828621626"><ele>111.65</ele><time>2017-04-19T11:10:02Z</time></trkpt><trkpt lat="51.7613940407" lon="-2.1829262003"><ele>111.65</ele><time>2017-04-19T11:10:08Z</time></trkpt><trkpt lat="51.7613746785" lon="-2.1830358356"><ele>112.61</ele><time>2017-04-19T11:10:17Z</time></trkpt><trkpt lat="51.7613233812" lon="-2.1831732988"><ele>112.61</ele><time>2017-04-19T11:10:28Z</time></trkpt><trkpt lat="51.7613120656" lon="-2.1832095087"><ele>111.17</ele><time>2017-04-19T11:10:31Z</time></trkpt><trkpt lat="51.7612727545" lon="-2.1833196469"><ele>113.57</ele><time>2017-04-19T11:10:40Z</time></trkpt><trkpt lat="51.7612582538" lon="-2.1833587904"><ele>113.09</ele><time>2017-04-19T11:10:43Z</time></trkpt><trkpt lat="51.7611578386" lon="-2.1836117562"><ele>112.13</ele><time>2017-04-19T11:11:02Z</time></trkpt><trkpt lat="51.7610785458" lon="-2.1838428453"><ele>113.57</ele><time>2017-04-19T11:11:19Z</time></trkpt><trkpt lat="51.7610505503" lon="-2.1838941425"><ele>113.09</ele><time>2017-04-19T11:11:25Z</time></trkpt><trkpt lat="51.7610363010" lon="-2.1839024406"><ele>114.05</ele><time>2017-04-19T11:11:27Z</time></trkpt><trkpt lat="51.7610052880" lon="-2.1839608625"><ele>113.57</ele><time>2017-04-19T11:11:38Z</time></trkpt><trkpt lat="51.7610010132" lon="-2.1839705016"><ele>108.29</ele><time>2017-04-19T11:11:39Z</time></trkpt><trkpt lat="51.7610000912" lon="-2.1839699149"><ele>114.53</ele><time>2017-04-19T11:11:40Z</time></trkpt><trkpt lat="51.7610018514" lon="-2.1839678194"><ele>114.53</ele><time>2017-04-19T11:11:44Z</time></trkpt><trkpt lat="51.7609591037" lon="-2.1839913726"><ele>113.09</ele><time>2017-04-19T11:11:49Z</time></trkpt><trkpt lat="51.7608953174" lon="-2.1840381436"><ele>111.17</ele><time>2017-04-19T11:11:57Z</time></trkpt><trkpt lat="51.7608579341" lon="-2.1840621997"><ele>110.69</ele><time>2017-04-19T11:12:01Z</time></trkpt><trkpt lat="51.7607327085" lon="-2.1841444261"><ele>108.77</ele><time>2017-04-19T11:12:15Z</time></trkpt><trkpt lat="51.7607155256" lon="-2.1841669735"><ele>108.77</ele><time>2017-04-19T11:12:18Z</time></trkpt><trkpt lat="51.7606059741" lon="-2.1842633653"><ele>107.81</ele><time>2017-04-19T11:12:31Z</time></trkpt><trkpt lat="51.7605488934" lon="-2.1843312588"><ele>106.84</ele><time>2017-04-19T11:12:38Z</time></trkpt><trkpt lat="51.7604421917" lon="-2.1844310872"><ele>107.32</ele><time>2017-04-19T11:12:50Z</time></trkpt><trkpt lat="51.7603288684" lon="-2.1844952926"><ele>106.36</ele><time>2017-04-19T11:13:02Z</time></trkpt><trkpt lat="51.7602579575" lon="-2.1845475119"><ele>105.88</ele><time>2017-04-19T11:13:09Z</time></trkpt><trkpt lat="51.7602375895" lon="-2.1845917683"><ele>105.88</ele><time>2017-04-19T11:13:12Z</time></trkpt><trkpt lat="51.7601116933" lon="-2.1847164072"><ele>103.00</ele><time>2017-04-19T11:13:28Z</time></trkpt><trkpt lat="51.7600907385" lon="-2.1847363561"><ele>105.40</ele><time>2017-04-19T11:13:30Z</time></trkpt><trkpt lat="51.7599502578" lon="-2.1848684549"><ele>104.92</ele><time>2017-04-19T11:13:45Z</time></trkpt><trkpt lat="51.7598266248" lon="-2.1849656850"><ele>104.92</ele><time>2017-04-19T11:13:59Z</time></trkpt><trkpt lat="51.7597041652" lon="-2.1850751527"><ele>103.48</ele><time>2017-04-19T11:14:13Z</time></trkpt><trkpt lat="51.7596533708" lon="-2.1851635817"><ele>103.96</ele><time>2017-04-19T11:14:21Z</time></trkpt><trkpt lat="51.7596335057" lon="-2.1851721313"><ele>103.96</ele><time>2017-04-19T11:14:23Z</time></trkpt><trkpt lat="51.7595910933" lon="-2.1852093469"><ele>104.44</ele><time>2017-04-19T11:14:27Z</time></trkpt><trkpt lat="51.7595263012" lon="-2.1852886397"><ele>103.00</ele><time>2017-04-19T11:14:35Z</time></trkpt><trkpt lat="51.7594625987" lon="-2.1853527613"><ele>103.00</ele><time>2017-04-19T11:14:42Z</time></trkpt><trkpt lat="51.7593564838" lon="-2.1854566131"><ele>103.48</ele><time>2017-04-19T11:14:54Z</time></trkpt><trkpt lat="51.7592579965" lon="-2.1855483949"><ele>103.48</ele><time>2017-04-19T11:15:06Z</time></trkpt><trkpt lat="51.7592032626" lon="-2.1856078226"><ele>103.48</ele><time>2017-04-19T11:15:14Z</time></trkpt><trkpt lat="51.7591759376" lon="-2.1856167074"><ele>102.52</ele><time>2017-04-19T11:15:17Z</time></trkpt><trkpt lat="51.7591207847" lon="-2.1856693458"><ele>102.52</ele><time>2017-04-19T11:15:30Z</time></trkpt><trkpt lat="51.7591072898" lon="-2.1856688429"><ele>103.00</ele><time>2017-04-19T11:15:49Z</time></trkpt><trkpt lat="51.7590978183" lon="-2.1856829245"><ele>103.00</ele><time>2017-04-19T11:16:12Z</time></trkpt><trkpt lat="51.7590937950" lon="-2.1856882051"><ele>103.48</ele><time>2017-04-19T11:16:21Z</time></trkpt><trkpt lat="51.7591036018" lon="-2.1857105009"><ele>103.48</ele><time>2017-04-19T11:16:44Z</time></trkpt><trkpt lat="51.7591032665" lon="-2.1857142728"><ele>103.48</ele><time>2017-04-19T11:16:56Z</time></trkpt><trkpt lat="51.7591108102" lon="-2.1857164521"><ele>104.92</ele><time>2017-04-19T11:17:05Z</time></trkpt><trkpt lat="51.7591100559" lon="-2.1857143566"><ele>102.52</ele><time>2017-04-19T11:17:08Z</time></trkpt><trkpt lat="51.7591073737" lon="-2.1857516561"><ele>103.00</ele><time>2017-04-19T11:17:28Z</time></trkpt><trkpt lat="51.7589309346" lon="-2.1859138459"><ele>102.52</ele><time>2017-04-19T11:17:46Z</time></trkpt><trkpt lat="51.7587756179" lon="-2.1860540751"><ele>101.56</ele><time>2017-04-19T11:18:00Z</time></trkpt><trkpt lat="51.7586301919" lon="-2.1862381417"><ele>101.08</ele><time>2017-04-19T11:18:17Z</time></trkpt><trkpt lat="51.7584306188" lon="-2.1863200329"><ele>101.08</ele><time>2017-04-19T11:18:36Z</time></trkpt><trkpt lat="51.7583548464" lon="-2.1864589211"><ele>99.15</ele><time>2017-04-19T11:18:55Z</time></trkpt><trkpt lat="51.7582579516" lon="-2.1865672152"><ele>95.79</ele><time>2017-04-19T11:19:13Z</time></trkpt><trkpt lat="51.7582044750" lon="-2.1867838036"><ele>93.87</ele><time>2017-04-19T11:19:29Z</time></trkpt><trkpt lat="51.7582286149" lon="-2.1870164014"><ele>91.94</ele><time>2017-04-19T11:19:45Z</time></trkpt><trkpt lat="51.7582707759" lon="-2.1870826185"><ele>91.46</ele><time>2017-04-19T11:19:51Z</time></trkpt><trkpt lat="51.7584265117" lon="-2.1871060040"><ele>89.06</ele><time>2017-04-19T11:20:10Z</time></trkpt><trkpt lat="51.7585706804" lon="-2.1870547067"><ele>89.06</ele><time>2017-04-19T11:20:29Z</time></trkpt><trkpt lat="51.7586772144" lon="-2.1870608255"><ele>86.66</ele><time>2017-04-19T11:20:46Z</time></trkpt><trkpt lat="51.7587473709" lon="-2.1871413756"><ele>84.73</ele><time>2017-04-19T11:21:02Z</time></trkpt><trkpt lat="51.7587520648" lon="-2.1873555332"><ele>82.33</ele><time>2017-04-19T11:21:16Z</time></trkpt><trkpt lat="51.7587183695" lon="-2.1875458863"><ele>81.37</ele><time>2017-04-19T11:21:30Z</time></trkpt><trkpt lat="51.7587140109" lon="-2.1876261849"><ele>81.37</ele><time>2017-04-19T11:21:35Z</time></trkpt><trkpt lat="51.7587239854" lon="-2.1876820922"><ele>80.89</ele><time>2017-04-19T11:21:39Z</time></trkpt><trkpt lat="51.7587339599" lon="-2.1877348144"><ele>80.41</ele><time>2017-04-19T11:21:42Z</time></trkpt><trkpt lat="51.7587371450" lon="-2.1878510714"><ele>80.41</ele><time>2017-04-19T11:21:48Z</time></trkpt><trkpt lat="51.7587284278" lon="-2.1880157758"><ele>80.41</ele><time>2017-04-19T11:22:01Z</time></trkpt><trkpt lat="51.7587285955" lon="-2.1881720982"><ele>80.89</ele><time>2017-04-19T11:22:18Z</time></trkpt><trkpt lat="51.7587619554" lon="-2.1882853378"><ele>81.85</ele><time>2017-04-19T11:22:28Z</time></trkpt><trkpt lat="51.7587601114" lon="-2.1884021815"><ele>81.37</ele><time>2017-04-19T11:22:35Z</time></trkpt><trkpt lat="51.7587474547" lon="-2.1885502059"><ele>82.33</ele><time>2017-04-19T11:22:50Z</time></trkpt><trkpt lat="51.7587459460" lon="-2.1885605156"><ele>83.29</ele><time>2017-04-19T11:23:06Z</time></trkpt><trkpt lat="51.7587790545" lon="-2.1886078734"><ele>79.45</ele><time>2017-04-19T11:23:18Z</time></trkpt><trkpt lat="51.7587791383" lon="-2.1886089630"><ele>85.21</ele><time>2017-04-19T11:23:19Z</time></trkpt><trkpt lat="51.7587812338" lon="-2.1886237990"><ele>85.69</ele><time>2017-04-19T11:23:23Z</time></trkpt><trkpt lat="51.7587868497" lon="-2.1886883397"><ele>83.77</ele><time>2017-04-19T11:23:27Z</time></trkpt><trkpt lat="51.7588302679" lon="-2.1887289919"><ele>84.73</ele><time>2017-04-19T11:23:41Z</time></trkpt><trkpt lat="51.7588420864" lon="-2.1887351107"><ele>83.77</ele><time>2017-04-19T11:23:42Z</time></trkpt><trkpt lat="51.7588649690" lon="-2.1887642797"><ele>83.29</ele><time>2017-04-19T11:23:45Z</time></trkpt><trkpt lat="51.7588716745" lon="-2.1887801215"><ele>84.73</ele><time>2017-04-19T11:23:46Z</time></trkpt><trkpt lat="51.7589025199" lon="-2.1888508648"><ele>89.06</ele><time>2017-04-19T11:23:51Z</time></trkpt><trkpt lat="51.7589140870" lon="-2.1888680477"><ele>85.21</ele><time>2017-04-19T11:23:53Z</time></trkpt><trkpt lat="51.7589886859" lon="-2.1889607515"><ele>90.02</ele><time>2017-04-19T11:24:05Z</time></trkpt><trkpt lat="51.7589916196" lon="-2.1889703069"><ele>88.58</ele><time>2017-04-19T11:24:06Z</time></trkpt><trkpt lat="51.7590304278" lon="-2.1890017390"><ele>90.02</ele><time>2017-04-19T11:24:17Z</time></trkpt><trkpt lat="51.7591560725" lon="-2.1890859772"><ele>91.46</ele><time>2017-04-19T11:24:34Z</time></trkpt><trkpt lat="51.7591551505" lon="-2.1890734881"><ele>90.50</ele><time>2017-04-19T11:24:39Z</time></trkpt><trkpt lat="51.7591636162" lon="-2.1890329197"><ele>93.87</ele><time>2017-04-19T11:24:45Z</time></trkpt><trkpt lat="51.7591732554" lon="-2.1890169103"><ele>98.19</ele><time>2017-04-19T11:24:49Z</time></trkpt><trkpt lat="51.7591797095" lon="-2.1890137251"><ele>92.90</ele><time>2017-04-19T11:24:50Z</time></trkpt><trkpt lat="51.7591838166" lon="-2.1890081093"><ele>92.90</ele><time>2017-04-19T11:24:51Z</time></trkpt><trkpt lat="51.7592011672" lon="-2.1890096180"><ele>94.83</ele><time>2017-04-19T11:24:54Z</time></trkpt><trkpt lat="51.7592084594" lon="-2.1889978833"><ele>93.87</ele><time>2017-04-19T11:25:02Z</time></trkpt><trkpt lat="51.7592313420" lon="-2.1889689658"><ele>97.23</ele><time>2017-04-19T11:25:11Z</time></trkpt><trkpt lat="51.7592329346" lon="-2.1889698878"><ele>96.27</ele><time>2017-04-19T11:25:12Z</time></trkpt><trkpt lat="51.7592361197" lon="-2.1889549680"><ele>92.90</ele><time>2017-04-19T11:25:14Z</time></trkpt><trkpt lat="51.7592447530" lon="-2.1889400482"><ele>97.23</ele><time>2017-04-19T11:25:16Z</time></trkpt><trkpt lat="51.7593139037" lon="-2.1888505295"><ele>93.87</ele><time>2017-04-19T11:25:34Z</time></trkpt><trkpt lat="51.7593109701" lon="-2.1888627671"><ele>97.23</ele><time>2017-04-19T11:25:36Z</time></trkpt><trkpt lat="51.7593111377" lon="-2.1888630185"><ele>97.23</ele><time>2017-04-19T11:25:37Z</time></trkpt><trkpt lat="51.7593501974" lon="-2.1887893416"><ele>99.15</ele><time>2017-04-19T11:25:50Z</time></trkpt><trkpt lat="51.7593877483" lon="-2.1887771878"><ele>99.15</ele><time>2017-04-19T11:25:57Z</time></trkpt><trkpt lat="51.7594759259" lon="-2.1887190174"><ele>100.11</ele><time>2017-04-19T11:26:14Z</time></trkpt><trkpt lat="51.7596085276" lon="-2.1885144152"><ele>101.08</ele><time>2017-04-19T11:26:34Z</time></trkpt><trkpt lat="51.7597372737" lon="-2.1883187816"><ele>102.04</ele><time>2017-04-19T11:26:52Z</time></trkpt><trkpt lat="51.7599245254" lon="-2.1881508920"><ele>103.00</ele><time>2017-04-19T11:27:14Z</time></trkpt><trkpt lat="51.7601075023" lon="-2.1880874410"><ele>104.44</ele><time>2017-04-19T11:27:35Z</time></trkpt><trkpt lat="51.7602738831" lon="-2.1879732795"><ele>106.36</ele><time>2017-04-19T11:27:54Z</time></trkpt><trkpt lat="51.7604532558" lon="-2.1877631452"><ele>107.32</ele><time>2017-04-19T11:28:16Z</time></trkpt><trkpt lat="51.7605367396" lon="-2.1877542604"><ele>108.29</ele><time>2017-04-19T11:28:32Z</time></trkpt><trkpt lat="51.7606163677" lon="-2.1877158713"><ele>108.77</ele><time>2017-04-19T11:28:53Z</time></trkpt><trkpt lat="51.7607973330" lon="-2.1876246762"><ele>109.25</ele><time>2017-04-19T11:29:11Z</time></trkpt><trkpt lat="51.7608446907" lon="-2.1876250114"><ele>109.25</ele><time>2017-04-19T11:29:16Z</time></trkpt><trkpt lat="51.7609807290" lon="-2.1875763126"><ele>109.73</ele><time>2017-04-19T11:29:34Z</time></trkpt><trkpt lat="51.7610135861" lon="-2.1875866223"><ele>110.21</ele><time>2017-04-19T11:29:38Z</time></trkpt><trkpt lat="51.7611728422" lon="-2.1875987761"><ele>110.21</ele><time>2017-04-19T11:29:53Z</time></trkpt><trkpt lat="51.7613177653" lon="-2.1876545157"><ele>111.65</ele><time>2017-04-19T11:30:10Z</time></trkpt><trkpt lat="51.7614647839" lon="-2.1877621394"><ele>111.17</ele><time>2017-04-19T11:30:28Z</time></trkpt><trkpt lat="51.7615610082" lon="-2.1878545079"><ele>112.61</ele><time>2017-04-19T11:30:41Z</time></trkpt><trkpt lat="51.7616759241" lon="-2.1878685057"><ele>112.61</ele><time>2017-04-19T11:31:00Z</time></trkpt><trkpt lat="51.7618150637" lon="-2.1879510675"><ele>114.05</ele><time>2017-04-19T11:31:17Z</time></trkpt><trkpt lat="51.7620086018" lon="-2.1880716830"><ele>115.98</ele><time>2017-04-19T11:31:37Z</time></trkpt><trkpt lat="51.7622417025" lon="-2.1880576853"><ele>116.94</ele><time>2017-04-19T11:31:57Z</time></trkpt><trkpt lat="51.7623818479" lon="-2.1881327033"><ele>118.38</ele><time>2017-04-19T11:32:14Z</time></trkpt><trkpt lat="51.7625497375" lon="-2.1882503852"><ele>118.86</ele><time>2017-04-19T11:32:34Z</time></trkpt><trkpt lat="51.7627222370" lon="-2.1883592661"><ele>120.30</ele><time>2017-04-19T11:32:53Z</time></trkpt><trkpt lat="51.7629747000" lon="-2.1886913572"><ele>119.34</ele><time>2017-04-19T11:33:16Z</time></trkpt><trkpt lat="51.7631212994" lon="-2.1888303291"><ele>119.82</ele><time>2017-04-19T11:33:36Z</time></trkpt><trkpt lat="51.7633617762" lon="-2.1889241226"><ele>121.26</ele><time>2017-04-19T11:33:58Z</time></trkpt><trkpt lat="51.7635762691" lon="-2.1889850590"><ele>120.78</ele><time>2017-04-19T11:34:18Z</time></trkpt><trkpt lat="51.7637931928" lon="-2.1888812911"><ele>121.26</ele><time>2017-04-19T11:34:38Z</time></trkpt><trkpt lat="51.7638454121" lon="-2.1885362081"><ele>122.22</ele><time>2017-04-19T11:34:53Z</time></trkpt><trkpt lat="51.7637989763" lon="-2.1881705057"><ele>123.19</ele><time>2017-04-19T11:35:14Z</time></trkpt><trkpt lat="51.7638367787" lon="-2.1881007683"><ele>123.67</ele><time>2017-04-19T11:35:20Z</time></trkpt><trkpt lat="51.7639040016" lon="-2.1879012790"><ele>123.19</ele><time>2017-04-19T11:35:38Z</time></trkpt><trkpt lat="51.7639416363" lon="-2.1878585313"><ele>123.67</ele><time>2017-04-19T11:35:42Z</time></trkpt><trkpt lat="51.7641085200" lon="-2.1875859518"><ele>123.19</ele><time>2017-04-19T11:36:06Z</time></trkpt><trkpt lat="51.7641499266" lon="-2.1874146257"><ele>123.19</ele><time>2017-04-19T11:36:21Z</time></trkpt><trkpt lat="51.7642038222" lon="-2.1872714628"><ele>122.71</ele><time>2017-04-19T11:36:37Z</time></trkpt><trkpt lat="51.7643223424" lon="-2.1871603187"><ele>122.22</ele><time>2017-04-19T11:36:52Z</time></trkpt><trkpt lat="51.7644160520" lon="-2.1868918464"><ele>122.71</ele><time>2017-04-19T11:37:13Z</time></trkpt><trkpt lat="51.7644829396" lon="-2.1867423132"><ele>122.71</ele><time>2017-04-19T11:37:30Z</time></trkpt><trkpt lat="51.7645682674" lon="-2.1865795366"><ele>122.71</ele><time>2017-04-19T11:37:45Z</time></trkpt><trkpt lat="51.7645428702" lon="-2.1865749266"><ele>119.82</ele><time>2017-04-19T11:38:09Z</time></trkpt><trkpt lat="51.7645398527" lon="-2.1865760162"><ele>123.67</ele><time>2017-04-19T11:38:10Z</time></trkpt><trkpt lat="51.7645331472" lon="-2.1865733340"><ele>123.19</ele><time>2017-04-19T11:38:16Z</time></trkpt></trkseg></trk></gpx>